Time,TemperatureF,DewpointF,PressureIn,WindDirection,WindDirectionDegrees,WindSpeedMPH,WindSpeedGustMPH,Humidity,HourlyPrecipIn,Conditions,Clouds,dailyrainin,SoftwareType,DateUTC
2013-02-23 00:00:00,35.0,25.1,30.13,SE,128,0.0,4.6,67,0.00,RA,,0.00,WeatherDisplay:10.37,2013-02-23 05:00:00,
2013-02-23 00:05:00,33.8,24.0,30.13,SE,128,0.0,0.0,67,0.00,RA,,0.00,WeatherDisplay:10.37,2013-02-23 05:05:00,
2013-02-23 00:10:00,34.9,24.7,30.13,SE,128,0.0,0.0,66,0.00,CLR,,0.00,WeatherDisplay:10.37,2013-02-23 05:10:00,
2013-02-23 00:15:00,34.4,24.2,30.13,SE,128,0.0,0.0,66,0.00,CLR,,0.00,WeatherDisplay:10.37,2013-02-23 05:15:00,
2013-02-23 00:20:00,34.7,24.1,30.13,SE,128,0.0,0.0,65,0.00,CLR,,0.00,WeatherDisplay:10.37,2013-02-23 05:20:00,
2013-02-23 00:21:00,34.4,23.8,30.13,SE,128,0.0,0.0,65,0.00,CLR,,0.00,WeatherDisplay:10.37,2013-02-23 05:21:00,
2013-02-23 00:25:00,34.9,24.3,30.14,SE,128,0.0,0.0,65,0.00,CLR,,0.00,WeatherDisplay:10.37,2013-02-23 05:25:00,
2013-02-23 00:26:00,33.7,23.2,30.14,SE,128,0.0,0.0,65,0.00,CLR,,0.00,WeatherDisplay:10.37,2013-02-23 05:26:00,
2013-02-23 00:30:00,34.8,23.9,30.14,SE,128,0.0,0.0,64,0.00,CLR,,0.00,WeatherDisplay:10.37,2013-02-23 05:30:00,
2013-02-23 00:31:00,34.8,23.9,30.14,SE,128,0.0,0.0,64,0.00,CLR,,0.00,WeatherDisplay:10.37,2013-02-23 05:31:00,
2013-02-23 00:32:00,34.8,23.9,30.14,SE,128,0.0,0.0,64,0.00,CLR,,0.00,WeatherDisplay:10.37,2013-02-23 05:32:00,
2013-02-23 00:35:00,33.9,23.4,30.14,SE,128,0.0,0.0,65,0.00,CLR,,0.00,WeatherDisplay:10.37,2013-02-23 05:35:00,
2013-02-23 00:36:00,33.7,23.2,30.14,SE,128,0.0,0.0,65,0.00,CLR,,0.00,WeatherDisplay:10.37,2013-02-23 05:36:00,
2013-02-23 00:37:00,34.9,24.3,30.14,SE,128,0.0,0.0,65,0.00,CLR,,0.00,WeatherDisplay:10.37,2013-02-23 05:37:00,
2013-02-23 00:40:00,34.6,23.7,30.14,SE,128,0.0,0.0,64,0.00,CLR,,0.00,WeatherDisplay:10.37,2013-02-23 05:40:00,
2013-02-23 00:41:00,35.1,24.5,30.14,SE,128,0.0,0.0,65,0.00,CLR,,0.00,WeatherDisplay:10.37,2013-02-23 05:41:00,
2013-02-23 00:42:00,35.6,24.6,30.14,SE,128,0.0,0.0,64,0.00,CLR,,0.00,WeatherDisplay:10.37,2013-02-23 05:42:00,
2013-02-23 00:45:00,35.1,24.5,30.14,SE,128,0.0,0.0,65,0.00,CLR,,0.00,WeatherDisplay:10.37,2013-02-23 05:45:00,
2013-02-23 00:46:00,34.7,23.8,30.14,SE,128,0.0,0.0,64,0.00,CLR,,0.00,WeatherDisplay:10.37,2013-02-23 05:46:00,
2013-02-23 00:47:00,34.3,23.7,30.14,SE,128,0.0,0.0,65,0.00,CLR,,0.00,WeatherDisplay:10.37,2013-02-23 05:47:00,
2013-02-23 00:50:00,35.5,24.9,30.14,SE,128,0.0,0.0,65,0.00,CLR,,0.00,WeatherDisplay:10.37,2013-02-23 05:50:00,
2013-02-23 00:51:00,34.7,24.1,30.14,SE,128,0.0,0.0,65,0.00,CLR,,0.00,WeatherDisplay:10.37,2013-02-23 05:51:00,
2013-02-23 00:52:00,34.0,23.5,30.14,SE,128,0.0,0.0,65,0.00,CLR,,0.00,WeatherDisplay:10.37,2013-02-23 05:52:00,
2013-02-23 00:55:00,35.1,24.5,30.14,SE,128,0.0,0.0,65,0.00,CLR,,0.00,WeatherDisplay:10.37,2013-02-23 05:55:00,
2013-02-23 00:56:00,35.0,24.4,30.14,SE,128,0.0,0.0,65,0.00,CLR,,0.00,WeatherDisplay:10.37,2013-02-23 05:56:00,
2013-02-23 00:57:00,33.6,23.1,30.14,SE,128,0.0,0.0,65,0.00,CLR,,0.00,WeatherDisplay:10.37,2013-02-23 05:57:00,
2013-02-23 01:00:00,34.8,24.2,30.14,SE,128,0.0,0.0,65,0.00,CLR,,0.00,WeatherDisplay:10.37,2013-02-23 06:00:00,
2013-02-23 01:01:00,35.1,24.5,30.13,SE,128,0.0,0.0,65,0.00,CLR,,0.00,WeatherDisplay:10.37,2013-02-23 06:01:00,
2013-02-23 01:03:00,34.9,24.7,30.13,SE,128,0.0,0.0,66,0.00,CLR,,0.00,WeatherDisplay:10.37,2013-02-23 06:03:00,
2013-02-23 01:05:00,35.5,25.3,30.13,SE,128,0.0,0.0,66,0.00,CLR,,0.00,WeatherDisplay:10.37,2013-02-23 06:05:00,
2013-02-23 01:06:00,35.1,24.9,30.13,SE,128,0.0,0.0,66,0.00,CLR,,0.00,WeatherDisplay:10.37,2013-02-23 06:06:00,
2013-02-23 01:08:00,33.6,23.1,30.13,SE,128,0.0,0.0,65,0.00,CLR,,0.00,WeatherDisplay:10.37,2013-02-23 06:08:00,
2013-02-23 01:10:00,33.7,23.5,30.13,SE,128,0.0,0.0,66,0.00,CLR,,0.00,WeatherDisplay:10.37,2013-02-23 06:10:00,
2013-02-23 01:11:00,34.7,24.5,30.13,SE,128,0.0,0.0,66,0.00,CLR,,0.00,WeatherDisplay:10.37,2013-02-23 06:11:00,
2013-02-23 01:12:00,34.2,24.0,30.13,SE,128,0.0,0.0,66,0.00,CLR,,0.00,WeatherDisplay:10.37,2013-02-23 06:12:00,
2013-02-23 01:13:00,34.1,23.9,30.14,SE,128,0.0,0.0,66,0.00,CLR,,0.00,WeatherDisplay:10.37,2013-02-23 06:13:00,
2013-02-23 01:15:00,34.4,24.2,30.14,SE,128,0.0,0.0,66,0.00,CLR,,0.00,WeatherDisplay:10.37,2013-02-23 06:15:00,
2013-02-23 01:16:00,34.1,23.9,30.14,NNE,16,0.0,0.0,66,0.00,CLR,,0.00,WeatherDisplay:10.37,2013-02-23 06:16:00,
2013-02-23 01:19:00,34.2,23.7,30.14,NNE,16,0.0,0.0,65,0.00,CLR,,0.00,WeatherDisplay:10.37,2013-02-23 06:19:00,
2013-02-23 01:20:00,35.2,24.6,30.14,NNE,16,0.0,0.0,65,0.00,CLR,,0.00,WeatherDisplay:10.37,2013-02-23 06:20:00,
2013-02-23 01:24:00,35.5,24.9,30.14,NNE,16,0.0,0.0,65,0.00,CLR,,0.00,WeatherDisplay:10.37,2013-02-23 06:24:00,
2013-02-23 01:26:00,34.9,24.3,30.14,NNE,16,0.0,0.0,65,0.00,CLR,,0.00,WeatherDisplay:10.37,2013-02-23 06:26:00,
2013-02-23 01:29:00,34.7,23.8,30.14,NNE,16,0.0,0.0,64,0.00,CLR,,0.00,WeatherDisplay:10.37,2013-02-23 06:29:00,
2013-02-23 01:31:00,33.1,22.2,30.13,NNE,16,0.0,0.0,64,0.00,CLR,,0.00,WeatherDisplay:10.37,2013-02-23 06:31:00,
2013-02-23 01:34:00,35.0,24.0,30.13,NNE,16,0.0,0.0,64,0.00,CLR,,0.00,WeatherDisplay:10.37,2013-02-23 06:34:00,
2013-02-23 01:36:00,34.4,23.5,30.13,NNE,16,0.0,0.0,64,0.00,CLR,,0.00,WeatherDisplay:10.37,2013-02-23 06:36:00,
2013-02-23 01:39:00,34.2,23.3,30.13,NNE,16,0.0,0.0,64,0.00,CLR,,0.00,WeatherDisplay:10.37,2013-02-23 06:39:00,
2013-02-23 01:40:00,34.0,23.1,30.13,NNE,16,0.0,0.0,64,0.00,CLR,,0.00,WeatherDisplay:10.37,2013-02-23 06:40:00,
2013-02-23 01:41:00,34.6,24.0,30.13,NNE,16,0.0,0.0,65,0.00,CLR,,0.00,WeatherDisplay:10.37,2013-02-23 06:41:00,
2013-02-23 01:44:00,34.2,23.7,30.13,NNE,16,0.0,0.0,65,0.00,CLR,,0.00,WeatherDisplay:10.37,2013-02-23 06:44:00,
2013-02-23 01:45:00,33.0,22.5,30.12,NNE,16,0.0,0.0,65,0.00,CLR,,0.00,WeatherDisplay:10.37,2013-02-23 06:45:00,
2013-02-23 01:46:00,34.0,23.8,30.12,NNE,16,0.0,0.0,66,0.00,CLR,,0.00,WeatherDisplay:10.37,2013-02-23 06:46:00,
2013-02-23 01:49:00,33.7,23.5,30.12,NNE,16,0.0,0.0,66,0.00,CLR,,0.00,WeatherDisplay:10.37,2013-02-23 06:49:00,
2013-02-23 01:50:00,33.1,23.0,30.12,NNE,16,0.0,0.0,66,0.00,CLR,,0.00,WeatherDisplay:10.37,2013-02-23 06:50:00,
2013-02-23 01:51:00,33.3,23.5,30.11,NNE,16,0.0,0.0,67,0.00,CLR,,0.00,WeatherDisplay:10.37,2013-02-23 06:51:00,
2013-02-23 01:54:00,33.1,23.7,30.12,NNE,16,0.0,0.0,68,0.00,CLR,,0.00,WeatherDisplay:10.37,2013-02-23 06:54:00,
2013-02-23 01:55:00,33.1,23.7,30.12,NNE,16,0.0,0.0,68,0.00,CLR,,0.00,WeatherDisplay:10.37,2013-02-23 06:55:00,
2013-02-23 01:56:00,34.2,24.7,30.12,NNE,16,0.0,0.0,68,0.00,CLR,,0.00,WeatherDisplay:10.37,2013-02-23 06:56:00,
2013-02-23 01:59:00,34.4,24.9,30.11,NNE,16,0.0,0.0,68,0.00,CLR,,0.00,WeatherDisplay:10.37,2013-02-23 06:59:00,
2013-02-23 02:00:00,34.4,24.9,30.11,NNE,16,0.0,0.0,68,0.00,CLR,,0.00,WeatherDisplay:10.37,2013-02-23 07:00:00,
2013-02-23 02:02:00,34.4,24.9,30.11,NNE,16,0.0,0.0,68,0.00,CLR,,0.00,WeatherDisplay:10.37,2013-02-23 07:02:00,
2013-02-23 02:04:00,33.2,23.8,30.11,NNE,16,0.0,0.0,68,0.00,CLR,,0.00,WeatherDisplay:10.37,2013-02-23 07:04:00,
2013-02-23 02:05:00,34.0,24.5,30.11,NNE,16,0.0,0.0,68,0.00,CLR,,0.00,WeatherDisplay:10.37,2013-02-23 07:05:00,
2013-02-23 02:07:00,33.4,24.0,30.11,NNE,16,0.0,0.0,68,0.00,CLR,,0.00,WeatherDisplay:10.37,2013-02-23 07:07:00,
2013-02-23 02:09:00,33.0,23.6,30.11,NNE,16,0.0,0.0,68,0.00,CLR,,0.00,WeatherDisplay:10.37,2013-02-23 07:09:00,
2013-02-23 02:10:00,32.6,23.2,30.11,NNE,16,0.0,0.0,68,0.00,CLR,,0.00,WeatherDisplay:10.37,2013-02-23 07:10:00,
2013-02-23 02:12:00,33.5,24.4,30.11,NNE,16,0.0,0.0,69,0.00,CLR,,0.00,WeatherDisplay:10.37,2013-02-23 07:12:00,
2013-02-23 02:15:00,33.6,24.5,30.10,NNE,16,0.0,0.0,69,0.00,CLR,,0.00,WeatherDisplay:10.37,2013-02-23 07:15:00,
2013-02-23 02:17:00,33.4,24.3,30.09,NNE,16,0.0,0.0,69,0.00,CLR,,0.00,WeatherDisplay:10.37,2013-02-23 07:17:00,
2013-02-23 02:20:00,32.3,23.3,30.08,East,90,0.3,5.8,69,0.00,CLR,,0.00,WeatherDisplay:10.37,2013-02-23 07:20:00,
2013-02-23 02:22:00,34.7,25.6,30.08,East,89,1.7,5.8,69,0.00,CLR,,0.00,WeatherDisplay:10.37,2013-02-23 07:22:00,
2013-02-23 02:25:00,33.3,23.9,30.09,East,89,0.0,0.0,68,0.00,CLR,,0.00,WeatherDisplay:10.37,2013-02-23 07:25:00,
2013-02-23 02:26:00,33.8,24.4,30.09,East,89,0.0,0.0,68,0.00,CLR,,0.00,WeatherDisplay:10.37,2013-02-23 07:26:00,
2013-02-23 02:27:00,34.7,25.2,30.09,East,89,0.0,0.0,68,0.00,CLR,,0.00,WeatherDisplay:10.37,2013-02-23 07:27:00,
2013-02-23 02:30:00,34.3,24.8,30.08,East,89,0.0,0.0,68,0.00,CLR,,0.00,WeatherDisplay:10.37,2013-02-23 07:30:00,
2013-02-23 02:31:00,34.3,25.2,30.08,East,89,0.0,0.0,69,0.00,CLR,,0.00,WeatherDisplay:10.37,2013-02-23 07:31:00,
2013-02-23 02:32:00,32.6,23.6,30.08,East,89,0.0,0.0,69,0.00,CLR,,0.00,WeatherDisplay:10.37,2013-02-23 07:32:00,
2013-02-23 02:35:00,32.5,23.5,30.07,East,89,0.0,0.0,69,0.00,CLR,,0.00,WeatherDisplay:10.37,2013-02-23 07:35:00,
2013-02-23 02:36:00,33.3,24.2,30.08,East,89,0.0,0.0,69,0.00,CLR,,0.00,WeatherDisplay:10.37,2013-02-23 07:36:00,
2013-02-23 02:37:00,33.4,24.3,30.08,East,89,0.0,0.0,69,0.00,CLR,,0.00,WeatherDisplay:10.37,2013-02-23 07:37:00,
2013-02-23 02:40:00,33.3,24.2,30.08,East,89,0.0,0.0,69,0.00,CLR,,0.00,WeatherDisplay:10.37,2013-02-23 07:40:00,
2013-02-23 02:41:00,33.0,23.9,30.08,East,89,0.0,0.0,69,0.00,CLR,,0.00,WeatherDisplay:10.37,2013-02-23 07:41:00,
2013-02-23 02:42:00,33.2,23.8,30.09,East,89,0.0,0.0,68,0.00,CLR,,0.00,WeatherDisplay:10.37,2013-02-23 07:42:00,
2013-02-23 02:46:00,33.2,23.8,30.09,East,89,0.0,0.0,68,0.00,CLR,,0.00,WeatherDisplay:10.37,2013-02-23 07:46:00,
2013-02-23 02:47:00,32.7,23.3,30.09,East,89,0.0,0.0,68,0.00,CLR,,0.00,WeatherDisplay:10.37,2013-02-23 07:47:00,
2013-02-23 02:51:00,33.3,24.2,30.08,East,89,0.0,0.0,69,0.00,CLR,,0.00,WeatherDisplay:10.37,2013-02-23 07:51:00,
2013-02-23 02:52:00,33.7,24.6,30.08,East,89,0.0,0.0,69,0.00,CLR,,0.00,WeatherDisplay:10.37,2013-02-23 07:52:00,
2013-02-23 02:56:00,33.7,24.6,30.08,East,89,0.0,0.0,69,0.00,CLR,,0.00,WeatherDisplay:10.37,2013-02-23 07:56:00,
2013-02-23 02:57:00,33.7,24.6,30.08,East,89,0.0,0.0,69,0.00,CLR,,0.00,WeatherDisplay:10.37,2013-02-23 07:57:00,
2013-02-23 03:01:00,32.7,23.3,30.08,East,89,0.0,0.0,68,0.00,CLR,,0.00,WeatherDisplay:10.37,2013-02-23 08:01:00,
2013-02-23 03:02:00,33.2,23.8,30.08,East,89,0.0,0.0,68,0.00,CLR,,0.00,WeatherDisplay:10.37,2013-02-23 08:02:00,
2013-02-23 03:06:00,33.1,24.4,30.08,East,89,0.0,0.0,70,0.00,CLR,,0.00,WeatherDisplay:10.37,2013-02-23 08:06:00,
2013-02-23 03:07:00,33.9,25.1,30.08,East,89,0.0,0.0,70,0.00,CLR,,0.00,WeatherDisplay:10.37,2013-02-23 08:07:00,
2013-02-23 03:11:00,32.7,23.6,30.08,East,89,0.0,0.0,69,0.00,CLR,,0.00,WeatherDisplay:10.37,2013-02-23 08:11:00,
2013-02-23 03:13:00,33.3,24.2,30.08,East,89,0.0,0.0,69,0.00,CLR,,0.00,WeatherDisplay:10.37,2013-02-23 08:13:00,
2013-02-23 03:14:00,32.6,23.6,30.08,East,89,0.0,0.0,69,0.00,CLR,,0.00,WeatherDisplay:10.37,2013-02-23 08:14:00,
2013-02-23 03:16:00,32.3,23.6,30.08,East,89,0.0,0.0,70,0.00,CLR,,0.00,WeatherDisplay:10.37,2013-02-23 08:16:00,
2013-02-23 03:18:00,34.2,25.1,30.08,East,89,0.0,0.0,69,0.00,CLR,,0.00,WeatherDisplay:10.37,2013-02-23 08:18:00,
2013-02-23 03:19:00,34.2,25.1,30.08,East,89,0.0,0.0,69,0.00,CLR,,0.00,WeatherDisplay:10.37,2013-02-23 08:19:00,
2013-02-23 03:21:00,34.2,25.1,30.08,East,89,0.0,0.0,69,0.00,CLR,,0.00,WeatherDisplay:10.37,2013-02-23 08:21:00,
2013-02-23 03:23:00,33.6,24.5,30.06,East,89,0.0,0.0,69,0.00,CLR,,0.00,WeatherDisplay:10.37,2013-02-23 08:23:00,
2013-02-23 03:24:00,33.6,24.5,30.06,East,89,0.0,0.0,69,0.00,CLR,,0.00,WeatherDisplay:10.37,2013-02-23 08:24:00,
2013-02-23 03:26:00,32.7,24.0,30.06,East,89,0.0,0.0,70,0.00,CLR,,0.00,WeatherDisplay:10.37,2013-02-23 08:26:00,
2013-02-23 03:27:00,33.7,25.0,30.06,East,89,0.0,0.0,70,0.00,CLR,,0.00,WeatherDisplay:10.37,2013-02-23 08:27:00,
2013-02-23 03:28:00,32.4,23.7,30.06,East,89,0.0,0.0,70,0.00,CLR,,0.00,WeatherDisplay:10.37,2013-02-23 08:28:00,
2013-02-23 03:29:00,32.8,24.1,30.06,East,89,0.0,0.0,70,0.00,CLR,,0.00,WeatherDisplay:10.37,2013-02-23 08:29:00,
2013-02-23 03:31:00,34.1,25.3,30.06,East,89,0.0,0.0,70,0.00,CLR,,0.00,WeatherDisplay:10.37,2013-02-23 08:31:00,
2013-02-23 03:32:00,32.3,23.6,30.06,East,89,0.0,0.0,70,0.00,CLR,,0.00,WeatherDisplay:10.37,2013-02-23 08:32:00,
2013-02-23 03:33:00,33.1,24.4,30.06,East,89,0.0,0.0,70,0.00,CLR,,0.00,WeatherDisplay:10.37,2013-02-23 08:33:00,
2013-02-23 03:34:00,32.7,23.6,30.06,East,89,0.0,0.0,69,0.00,CLR,,0.00,WeatherDisplay:10.37,2013-02-23 08:34:00,
2013-02-23 03:37:00,32.6,23.6,30.06,East,89,0.0,0.0,69,0.00,CLR,,0.00,WeatherDisplay:10.37,2013-02-23 08:37:00,
2013-02-23 03:38:00,33.7,24.6,30.05,East,89,0.0,0.0,69,0.00,CLR,,0.00,WeatherDisplay:10.37,2013-02-23 08:38:00,
2013-02-23 03:39:00,34.0,24.9,30.05,East,89,0.0,0.0,69,0.00,CLR,,0.00,WeatherDisplay:10.37,2013-02-23 08:39:00,
2013-02-23 03:42:00,33.9,24.8,30.05,East,89,0.0,0.0,69,0.00,CLR,,0.00,WeatherDisplay:10.37,2013-02-23 08:42:00,
2013-02-23 03:43:00,32.4,23.4,30.05,East,89,0.0,0.0,69,0.00,CLR,,0.00,WeatherDisplay:10.37,2013-02-23 08:43:00,
2013-02-23 03:44:00,33.3,24.2,30.05,East,89,0.0,0.0,69,0.00,CLR,,0.00,WeatherDisplay:10.37,2013-02-23 08:44:00,
2013-02-23 03:47:00,34.7,25.6,30.05,East,89,0.0,0.0,69,0.00,CLR,,0.00,WeatherDisplay:10.37,2013-02-23 08:47:00,
2013-02-23 03:49:00,34.7,25.6,30.04,East,89,0.0,0.0,69,0.00,CLR,,0.00,WeatherDisplay:10.37,2013-02-23 08:49:00,
2013-02-23 03:52:00,33.0,23.9,30.04,East,89,0.0,0.0,69,0.00,CLR,,0.00,WeatherDisplay:10.37,2013-02-23 08:52:00,
2013-02-23 03:54:00,32.7,24.3,30.04,East,89,0.0,0.0,71,0.00,CLR,,0.00,WeatherDisplay:10.37,2013-02-23 08:54:00,
2013-02-23 03:55:00,34.5,26.1,30.04,East,89,0.0,0.0,71,0.00,CLR,,0.00,WeatherDisplay:10.37,2013-02-23 08:55:00,
2013-02-23 03:57:00,33.1,25.1,30.05,East,89,0.0,0.0,72,0.00,CLR,,0.00,WeatherDisplay:10.37,2013-02-23 08:57:00,
2013-02-23 03:59:00,33.0,25.3,30.04,East,89,0.0,0.0,73,0.00,CLR,,0.00,WeatherDisplay:10.37,2013-02-23 08:59:00,
2013-02-23 04:00:00,31.9,24.2,30.04,East,89,0.0,0.0,73,0.00,CLR,,0.00,WeatherDisplay:10.37,2013-02-23 09:00:00,
2013-02-23 04:02:00,32.3,24.6,30.04,East,89,0.0,0.0,73,0.00,CLR,,0.00,WeatherDisplay:10.37,2013-02-23 09:02:00,
2013-02-23 04:03:00,33.8,26.1,30.04,East,89,0.0,0.0,73,0.00,CLR,,0.00,WeatherDisplay:10.37,2013-02-23 09:03:00,
2013-02-23 04:04:00,32.9,25.5,30.04,East,89,0.0,0.0,74,0.00,CLR,,0.00,WeatherDisplay:10.37,2013-02-23 09:04:00,
2013-02-23 04:05:00,32.9,25.5,30.04,East,89,0.0,0.0,74,0.00,CLR,,0.00,WeatherDisplay:10.37,2013-02-23 09:05:00,
2013-02-23 04:07:00,32.7,25.6,30.04,East,89,0.0,0.0,75,0.00,CLR,,0.00,WeatherDisplay:10.37,2013-02-23 09:07:00,
2013-02-23 04:08:00,32.3,25.6,30.04,East,89,0.0,0.0,76,0.00,CLR,,0.00,WeatherDisplay:10.37,2013-02-23 09:08:00,
2013-02-23 04:10:00,32.1,25.4,30.04,East,89,0.1,1.5,76,0.00,CLR,,0.00,WeatherDisplay:10.37,2013-02-23 09:10:00,
2013-02-23 04:12:00,31.9,25.5,30.04,NNW,335,0.7,4.6,77,0.00,CLR,,0.00,WeatherDisplay:10.37,2013-02-23 09:12:00,
2013-02-23 04:14:00,32.5,26.1,30.04,NNW,335,0.0,0.0,77,0.00,CLR,,0.00,WeatherDisplay:10.37,2013-02-23 09:14:00,
2013-02-23 04:15:00,32.5,25.8,30.04,NNW,339,1.6,5.1,76,0.00,CLR,,0.00,WeatherDisplay:10.37,2013-02-23 09:15:00,
2013-02-23 04:17:00,33.6,27.2,30.04,NNW,332,0.0,0.0,77,0.00,CLR,,0.00,WeatherDisplay:10.37,2013-02-23 09:17:00,
2013-02-23 04:19:00,34.4,27.6,30.04,NNW,332,0.0,0.0,76,0.00,CLR,,0.00,WeatherDisplay:10.37,2013-02-23 09:19:00,
2013-02-23 04:20:00,34.4,27.6,30.04,NNW,332,0.0,0.0,76,0.00,CLR,,0.00,WeatherDisplay:10.37,2013-02-23 09:20:00,
2013-02-23 04:22:00,34.3,27.5,30.05,NNW,332,0.0,0.0,76,0.00,CLR,,0.00,WeatherDisplay:10.37,2013-02-23 09:22:00,
2013-02-23 04:24:00,32.5,25.5,30.05,NNW,332,0.0,0.0,75,0.00,CLR,,0.00,WeatherDisplay:10.37,2013-02-23 09:24:00,
2013-02-23 04:25:00,32.6,25.6,30.05,NNW,332,0.0,0.0,75,0.00,CLR,,0.00,WeatherDisplay:10.37,2013-02-23 09:25:00,
2013-02-23 04:27:00,32.6,25.2,30.05,NNW,332,0.0,0.0,74,0.00,CLR,,0.00,WeatherDisplay:10.37,2013-02-23 09:27:00,
2013-02-23 04:29:00,32.8,25.4,30.05,NNW,332,0.0,0.0,74,0.00,CLR,,0.00,WeatherDisplay:10.37,2013-02-23 09:29:00,
2013-02-23 04:30:00,31.8,24.5,30.05,NNW,332,0.0,0.0,74,0.00,CLR,,0.00,WeatherDisplay:10.37,2013-02-23 09:30:00,
2013-02-23 04:31:00,31.8,24.5,30.05,NNW,332,0.0,0.0,74,0.00,CLR,,0.00,WeatherDisplay:10.37,2013-02-23 09:31:00,
2013-02-23 04:32:00,33.3,25.9,30.05,NNW,332,0.0,0.0,74,0.00,CLR,,0.00,WeatherDisplay:10.37,2013-02-23 09:32:00,
2013-02-23 04:34:00,33.0,25.6,30.05,NNW,332,0.0,0.0,74,0.00,CLR,,0.00,WeatherDisplay:10.37,2013-02-23 09:34:00,
2013-02-23 04:35:00,32.5,25.5,30.05,NNW,332,0.0,0.0,75,0.00,CLR,,0.00,WeatherDisplay:10.37,2013-02-23 09:35:00,
2013-02-23 04:36:00,33.8,26.7,30.05,NNW,332,0.0,0.0,75,0.00,CLR,,0.00,WeatherDisplay:10.37,2013-02-23 09:36:00,
2013-02-23 04:38:00,32.2,25.2,30.05,NNW,332,0.0,0.0,75,0.00,CLR,,0.00,WeatherDisplay:10.37,2013-02-23 09:38:00,
2013-02-23 04:39:00,33.1,26.0,30.05,NNW,332,0.0,0.0,75,0.00,CLR,,0.00,WeatherDisplay:10.37,2013-02-23 09:39:00,
2013-02-23 04:40:00,34.2,27.4,30.05,NNW,332,0.0,0.0,76,0.00,CLR,,0.00,WeatherDisplay:10.37,2013-02-23 09:40:00,
2013-02-23 04:41:00,34.2,27.4,30.05,NNW,332,0.0,0.0,76,0.00,CLR,,0.00,WeatherDisplay:10.37,2013-02-23 09:41:00,
2013-02-23 04:43:00,34.2,27.4,30.05,NNW,332,0.0,0.0,76,0.00,CLR,,0.00,WeatherDisplay:10.37,2013-02-23 09:43:00,
2013-02-23 04:44:00,33.5,26.7,30.04,NNW,332,0.0,0.0,76,0.00,CLR,,0.00,WeatherDisplay:10.37,2013-02-23 09:44:00,
2013-02-23 04:45:00,32.9,26.2,30.04,NNW,332,0.0,0.0,76,0.00,CLR,,0.00,WeatherDisplay:10.37,2013-02-23 09:45:00,
2013-02-23 04:46:00,32.9,26.2,30.04,NNW,332,0.0,0.0,76,0.00,CLR,,0.00,WeatherDisplay:10.37,2013-02-23 09:46:00,
2013-02-23 04:48:00,32.6,25.9,30.04,NNW,332,0.0,0.0,76,0.00,CLR,,0.00,WeatherDisplay:10.37,2013-02-23 09:48:00,
2013-02-23 04:49:00,31.8,25.1,30.04,NNW,332,0.0,0.0,76,0.00,CLR,,0.00,WeatherDisplay:10.37,2013-02-23 09:49:00,
2013-02-23 04:50:00,32.3,25.6,30.04,NNW,332,0.0,0.0,76,0.00,CLR,,0.00,WeatherDisplay:10.37,2013-02-23 09:50:00,
2013-02-23 04:51:00,32.3,25.9,30.04,NNW,332,0.0,0.0,77,0.00,CLR,,0.00,WeatherDisplay:10.37,2013-02-23 09:51:00,
2013-02-23 04:53:00,32.3,25.9,30.05,NNW,332,0.0,0.0,77,0.00,CLR,,0.00,WeatherDisplay:10.37,2013-02-23 09:53:00,
2013-02-23 04:54:00,31.8,25.4,30.04,NNW,332,0.0,0.0,77,0.00,CLR,,0.00,WeatherDisplay:10.37,2013-02-23 09:54:00,
2013-02-23 04:55:00,32.3,25.9,30.05,NNW,332,0.0,0.0,77,0.00,CLR,,0.00,WeatherDisplay:10.37,2013-02-23 09:55:00,
2013-02-23 04:56:00,32.3,26.2,30.05,NNW,332,0.0,0.0,78,0.00,CLR,,0.00,WeatherDisplay:10.37,2013-02-23 09:56:00,
2013-02-23 04:58:00,33.1,27.0,30.05,NNW,332,0.0,0.0,78,0.00,CLR,,0.00,WeatherDisplay:10.37,2013-02-23 09:58:00,
2013-02-23 05:00:00,32.7,26.6,30.05,NNW,332,0.0,0.0,78,0.00,CLR,,0.00,WeatherDisplay:10.37,2013-02-23 10:00:00,
2013-02-23 05:01:00,32.7,26.6,30.04,NNW,332,0.0,0.0,78,0.00,CLR,,0.00,WeatherDisplay:10.37,2013-02-23 10:01:00,
2013-02-23 05:02:00,32.9,26.8,30.04,NNW,332,0.0,0.0,78,0.00,CLR,,0.00,WeatherDisplay:10.37,2013-02-23 10:02:00,
2013-02-23 05:03:00,31.7,25.6,30.05,NNW,332,0.0,0.0,78,0.00,CLR,,0.00,WeatherDisplay:10.37,2013-02-23 10:03:00,
2013-02-23 05:05:00,32.0,26.5,30.04,NNW,332,0.0,0.0,80,0.00,CLR,,0.00,WeatherDisplay:10.37,2013-02-23 10:05:00,
2013-02-23 05:06:00,33.7,27.9,30.04,WNW,294,2.5,6.9,79,0.00,CLR,,0.00,WeatherDisplay:10.37,2013-02-23 10:06:00,
2013-02-23 05:07:00,33.7,27.9,30.05,NNW,335,3.7,6.9,79,0.00,CLR,,0.00,WeatherDisplay:10.37,2013-02-23 10:07:00,
2013-02-23 05:09:00,33.5,27.7,30.04,NW,305,0.0,0.0,79,0.00,CLR,,0.00,WeatherDisplay:10.37,2013-02-23 10:09:00,
2013-02-23 05:10:00,33.2,27.4,30.04,NW,305,0.0,0.0,79,0.00,CLR,,0.00,WeatherDisplay:10.37,2013-02-23 10:10:00,
2013-02-23 05:11:00,34.3,28.8,30.04,NW,305,0.0,0.0,80,0.00,CLR,,0.00,WeatherDisplay:10.37,2013-02-23 10:11:00,
2013-02-23 05:12:00,34.3,28.8,30.04,NW,305,0.0,0.0,80,0.00,CLR,,0.00,WeatherDisplay:10.37,2013-02-23 10:12:00,
2013-02-23 05:14:00,33.4,27.9,30.05,NW,305,0.0,0.0,80,0.00,CLR,,0.00,WeatherDisplay:10.37,2013-02-23 10:14:00,
2013-02-23 05:15:00,33.4,27.6,30.05,NW,305,0.0,0.0,79,0.00,CLR,,0.00,WeatherDisplay:10.37,2013-02-23 10:15:00,
2013-02-23 05:17:00,32.3,26.8,30.04,NW,305,0.0,0.0,80,0.00,CLR,,0.00,WeatherDisplay:10.37,2013-02-23 10:17:00,
2013-02-23 05:19:00,33.4,27.9,30.06,NW,305,0.0,0.0,80,0.00,CLR,,0.00,WeatherDisplay:10.37,2013-02-23 10:19:00,
2013-02-23 05:20:00,32.3,27.1,30.06,NW,305,0.0,0.0,81,0.00,CLR,,0.00,WeatherDisplay:10.37,2013-02-23 10:20:00,
2013-02-23 05:22:00,33.0,27.5,30.06,NW,305,0.0,0.0,80,0.00,CLR,,0.00,WeatherDisplay:10.37,2013-02-23 10:22:00,
2013-02-23 05:24:00,33.9,28.7,30.06,NW,305,0.0,0.0,81,0.00,CLR,,0.00,WeatherDisplay:10.37,2013-02-23 10:24:00,
2013-02-23 05:25:00,33.7,28.5,30.06,NW,305,0.0,0.0,81,0.00,CLR,,0.00,WeatherDisplay:10.37,2013-02-23 10:25:00,
2013-02-23 05:27:00,32.8,27.6,30.06,NW,305,0.0,0.0,81,0.00,CLR,,0.00,WeatherDisplay:10.37,2013-02-23 10:27:00,
2013-02-23 05:29:00,33.2,28.0,30.06,NW,305,0.0,0.0,81,0.00,CLR,,0.00,WeatherDisplay:10.37,2013-02-23 10:29:00,
2013-02-23 05:30:00,32.9,27.7,30.06,NW,305,0.0,0.0,81,0.00,CLR,,0.00,WeatherDisplay:10.37,2013-02-23 10:30:00,
2013-02-23 05:32:00,32.3,27.4,30.06,NW,305,0.0,0.0,82,0.00,CLR,,0.00,WeatherDisplay:10.37,2013-02-23 10:32:00,
2013-02-23 05:35:00,34.3,29.4,30.05,NW,305,0.0,0.0,82,0.00,CLR,,0.00,WeatherDisplay:10.37,2013-02-23 10:35:00,
2013-02-23 05:37:00,34.4,29.8,30.06,NW,305,0.0,0.0,83,0.00,CLR,,0.00,WeatherDisplay:10.37,2013-02-23 10:37:00,
2013-02-23 05:40:00,34.4,29.8,30.05,NW,305,0.0,0.0,83,0.00,CLR,,0.00,WeatherDisplay:10.37,2013-02-23 10:40:00,
2013-02-23 05:41:00,34.4,29.8,30.05,NW,305,0.0,0.0,83,0.00,CLR,,0.00,WeatherDisplay:10.37,2013-02-23 10:41:00,
2013-02-23 05:42:00,32.4,28.1,30.06,NW,305,0.0,0.0,84,0.00,CLR,,0.00,WeatherDisplay:10.37,2013-02-23 10:42:00,
2013-02-23 05:43:00,33.2,29.2,30.06,NW,305,0.0,0.0,85,0.00,CLR,,0.00,WeatherDisplay:10.37,2013-02-23 10:43:00,
2013-02-23 05:45:00,32.9,28.9,30.05,NW,305,0.0,0.0,85,0.00,CLR,,0.00,WeatherDisplay:10.37,2013-02-23 10:45:00,
2013-02-23 05:46:00,33.7,29.7,30.05,NW,305,0.0,0.0,85,0.00,CLR,,0.00,WeatherDisplay:10.37,2013-02-23 10:46:00,
2013-02-23 05:47:00,33.1,29.4,30.05,NW,305,0.0,0.0,86,0.00,CLR,,0.00,WeatherDisplay:10.37,2013-02-23 10:47:00,
2013-02-23 05:48:00,32.7,29.0,30.05,NW,305,0.0,0.0,86,0.00,CLR,,0.00,WeatherDisplay:10.37,2013-02-23 10:48:00,
2013-02-23 05:50:00,32.2,28.2,30.05,NW,305,0.0,0.0,85,0.00,CLR,,0.00,WeatherDisplay:10.37,2013-02-23 10:50:00,
2013-02-23 05:51:00,32.8,29.1,30.05,NW,305,0.0,0.0,86,0.00,CLR,,0.00,WeatherDisplay:10.37,2013-02-23 10:51:00,
2013-02-23 05:52:00,32.3,28.6,30.05,NW,305,0.0,0.0,86,0.00,CLR,,0.00,WeatherDisplay:10.37,2013-02-23 10:52:00,
2013-02-23 05:53:00,32.8,29.4,30.05,NW,305,0.0,0.0,87,0.00,CLR,,0.00,WeatherDisplay:10.37,2013-02-23 10:53:00,
2013-02-23 05:55:00,32.3,29.4,30.04,NW,305,0.0,0.0,89,0.00,CLR,,0.00,WeatherDisplay:10.37,2013-02-23 10:55:00,
2013-02-23 05:56:00,32.7,30.1,30.05,NW,305,0.0,0.0,90,0.00,CLR,,0.00,WeatherDisplay:10.37,2013-02-23 10:56:00,
2013-02-23 05:57:00,32.0,29.4,30.05,NW,305,0.0,0.0,90,0.00,CLR,,0.00,WeatherDisplay:10.37,2013-02-23 10:57:00,
2013-02-23 05:58:00,32.0,29.4,30.04,NW,305,0.0,0.0,90,0.00,CLR,,0.01,WeatherDisplay:10.37,2013-02-23 10:58:00,
2013-02-23 06:00:00,33.8,31.5,30.04,NW,305,0.0,0.0,91,0.01,RA,,0.01,WeatherDisplay:10.37,2013-02-23 11:00:00,
2013-02-23 06:01:00,33.8,31.5,30.04,NW,305,0.0,0.0,91,0.01,RA,,0.01,WeatherDisplay:10.37,2013-02-23 11:01:00,
2013-02-23 06:02:00,33.8,31.5,30.03,NW,305,0.0,0.0,91,0.01,RA,,0.01,WeatherDisplay:10.37,2013-02-23 11:02:00,
2013-02-23 06:03:00,33.8,31.5,30.03,NW,305,0.0,0.0,91,0.01,RA,,0.01,WeatherDisplay:10.37,2013-02-23 11:03:00,
2013-02-23 06:06:00,33.8,32.0,30.03,NW,305,0.0,0.0,93,0.01,RA,,0.01,WeatherDisplay:10.37,2013-02-23 11:06:00,
2013-02-23 06:08:00,34.3,32.5,30.03,NW,305,0.0,0.0,93,0.01,RA,,0.01,WeatherDisplay:10.37,2013-02-23 11:08:00,
2013-02-23 06:11:00,32.7,31.4,30.02,NW,305,0.0,0.0,95,0.01,,,0.01,WeatherDisplay:10.37,2013-02-23 11:11:00,
2013-02-23 06:12:00,31.3,30.0,30.01,NW,305,0.0,0.0,95,0.01,CLR,,0.01,WeatherDisplay:10.37,2013-02-23 11:12:00,
2013-02-23 06:13:00,31.4,30.1,30.01,NW,305,0.0,0.0,95,0.01,CLR,,0.01,WeatherDisplay:10.37,2013-02-23 11:13:00,
2013-02-23 06:16:00,31.5,30.2,30.01,NW,305,0.0,0.0,95,0.01,CLR,,0.01,WeatherDisplay:10.37,2013-02-23 11:16:00,
2013-02-23 06:17:00,32.2,31.2,30.01,NW,305,0.0,0.0,96,0.01,CLR,,0.01,WeatherDisplay:10.37,2013-02-23 11:17:00,
2013-02-23 06:18:00,32.0,31.0,30.01,NW,305,0.0,0.0,96,0.01,CLR,,0.01,WeatherDisplay:10.37,2013-02-23 11:18:00,
2013-02-23 06:21:00,31.4,30.4,30.01,NW,305,0.0,0.0,96,0.01,CLR,,0.01,WeatherDisplay:10.37,2013-02-23 11:21:00,
2013-02-23 06:22:00,31.7,30.7,30.00,NW,305,0.0,0.0,96,0.01,CLR,,0.01,WeatherDisplay:10.37,2013-02-23 11:22:00,
2013-02-23 06:23:00,31.5,30.5,30.00,NW,305,0.0,0.0,96,0.01,CLR,,0.01,WeatherDisplay:10.37,2013-02-23 11:23:00,
2013-02-23 06:26:00,33.0,32.0,30.00,NW,305,0.0,0.0,96,0.01,CLR,,0.01,WeatherDisplay:10.37,2013-02-23 11:26:00,
2013-02-23 06:27:00,33.0,32.0,30.00,NW,305,0.0,0.0,96,0.01,CLR,,0.01,WeatherDisplay:10.37,2013-02-23 11:27:00,
2013-02-23 06:28:00,33.0,32.0,30.00,NW,305,0.0,0.0,96,0.01,CLR,,0.01,WeatherDisplay:10.37,2013-02-23 11:28:00,
2013-02-23 06:31:00,33.0,32.0,30.00,NW,305,0.0,0.0,96,0.01,CLR,,0.01,WeatherDisplay:10.37,2013-02-23 11:31:00,
2013-02-23 06:32:00,33.0,32.0,30.00,NW,305,0.0,0.0,96,0.01,CLR,,0.01,WeatherDisplay:10.37,2013-02-23 11:32:00,
2013-02-23 06:33:00,33.0,32.0,30.00,NW,305,0.0,0.0,96,0.01,CLR,,0.01,WeatherDisplay:10.37,2013-02-23 11:33:00,
2013-02-23 06:36:00,32.3,31.3,30.01,NW,305,0.0,0.0,96,0.01,CLR,,0.01,WeatherDisplay:10.37,2013-02-23 11:36:00,
2013-02-23 06:37:00,31.7,30.7,30.01,NW,305,0.0,0.0,96,0.01,CLR,,0.01,WeatherDisplay:10.37,2013-02-23 11:37:00,
2013-02-23 06:38:00,31.7,30.7,30.02,NW,305,0.0,0.0,96,0.01,CLR,,0.01,WeatherDisplay:10.37,2013-02-23 11:38:00,
2013-02-23 06:41:00,32.5,31.5,30.02,NW,305,0.0,0.0,96,0.01,CLR,,0.01,WeatherDisplay:10.37,2013-02-23 11:41:00,
2013-02-23 06:42:00,32.9,32.1,30.02,NW,305,0.0,0.0,97,0.01,CLR,,0.01,WeatherDisplay:10.37,2013-02-23 11:42:00,
2013-02-23 06:43:00,31.7,30.7,30.02,NW,305,0.0,0.0,96,0.01,CLR,,0.01,WeatherDisplay:10.37,2013-02-23 11:43:00,
2013-02-23 06:44:00,31.6,30.6,30.02,NW,305,0.0,0.0,96,0.01,CLR,,0.01,WeatherDisplay:10.37,2013-02-23 11:44:00,
2013-02-23 06:46:00,31.4,30.4,30.02,NW,305,0.0,0.0,96,0.01,CLR,,0.01,WeatherDisplay:10.37,2013-02-23 11:46:00,
2013-02-23 06:48:00,31.6,30.6,30.03,NW,305,0.0,0.0,96,0.01,CLR,,0.01,WeatherDisplay:10.37,2013-02-23 11:48:00,
2013-02-23 06:49:00,32.6,31.6,30.02,NW,305,0.0,0.0,96,0.01,CLR,,0.01,WeatherDisplay:10.37,2013-02-23 11:49:00,
2013-02-23 06:51:00,33.0,32.2,30.01,NW,305,0.0,0.0,97,0.01,CLR,,0.01,WeatherDisplay:10.37,2013-02-23 11:51:00,
2013-02-23 06:53:00,33.0,32.2,30.01,NW,305,0.0,0.0,97,0.01,CLR,,0.01,WeatherDisplay:10.37,2013-02-23 11:53:00,
2013-02-23 06:54:00,34.2,33.7,30.02,NW,305,0.0,0.0,98,0.01,CLR,,0.01,WeatherDisplay:10.37,2013-02-23 11:54:00,
2013-02-23 06:57:00,33.0,32.8,30.02,NW,305,0.0,0.0,99,0.01,CLR,,0.01,WeatherDisplay:10.37,2013-02-23 11:57:00,
2013-02-23 06:58:00,33.8,33.8,30.02,NW,305,0.0,0.0,100,0.01,CLR,,0.01,WeatherDisplay:10.37,2013-02-23 11:58:00,
2013-02-23 06:59:00,32.8,32.8,30.02,NW,305,0.0,0.0,100,0.00,CLR,,0.01,WeatherDisplay:10.37,2013-02-23 11:59:00,
2013-02-23 07:02:00,32.3,32.3,30.02,NW,305,0.0,0.0,100,0.00,,,0.01,WeatherDisplay:10.37,2013-02-23 12:02:00,
2013-02-23 07:03:00,31.5,31.5,30.01,NW,305,0.0,0.0,100,0.00,,,0.01,WeatherDisplay:10.37,2013-02-23 12:03:00,
2013-02-23 07:05:00,32.1,32.1,30.01,NW,305,0.0,0.0,100,0.00,,,0.01,WeatherDisplay:10.37,2013-02-23 12:05:00,
2013-02-23 07:07:00,31.5,31.5,30.02,NW,305,0.0,0.0,100,0.00,,,0.01,WeatherDisplay:10.37,2013-02-23 12:07:00,
2013-02-23 07:08:00,31.4,31.4,30.02,NW,305,0.0,0.0,100,0.00,,,0.01,WeatherDisplay:10.37,2013-02-23 12:08:00,
2013-02-23 07:10:00,33.0,33.0,30.02,NW,305,0.0,0.0,100,0.00,,,0.01,WeatherDisplay:10.37,2013-02-23 12:10:00,
2013-02-23 07:12:00,31.9,31.9,30.03,NW,305,0.0,0.0,100,0.00,,,0.01,WeatherDisplay:10.37,2013-02-23 12:12:00,
2013-02-23 07:13:00,32.8,32.8,30.03,NW,305,0.0,0.0,100,0.00,,,0.01,WeatherDisplay:10.37,2013-02-23 12:13:00,
2013-02-23 07:14:00,33.0,33.0,30.03,NW,305,0.0,0.0,100,0.00,,,0.01,WeatherDisplay:10.37,2013-02-23 12:14:00,
2013-02-23 07:15:00,32.1,32.1,30.03,NW,305,0.0,0.0,100,0.00,,,0.01,WeatherDisplay:10.37,2013-02-23 12:15:00,
2013-02-23 07:18:00,32.8,32.8,30.03,NW,305,0.0,0.0,100,0.00,,,0.01,WeatherDisplay:10.37,2013-02-23 12:18:00,
2013-02-23 07:19:00,34.5,34.5,30.03,NW,305,0.0,0.0,100,0.00,,,0.01,WeatherDisplay:10.37,2013-02-23 12:19:00,
2013-02-23 07:20:00,33.8,33.8,30.03,NW,305,0.0,0.0,100,0.00,,,0.01,WeatherDisplay:10.37,2013-02-23 12:20:00,
2013-02-23 07:24:00,33.8,33.8,30.02,NW,305,0.0,0.0,100,0.00,,,0.01,WeatherDisplay:10.37,2013-02-23 12:24:00,
2013-02-23 07:25:00,33.8,33.8,30.02,NW,305,0.0,0.0,100,0.00,,,0.01,WeatherDisplay:10.37,2013-02-23 12:25:00,
2013-02-23 07:29:00,34.0,34.0,30.02,NW,305,0.0,0.0,100,0.00,,,0.01,WeatherDisplay:10.37,2013-02-23 12:29:00,
2013-02-23 07:30:00,34.0,34.0,30.02,NW,305,0.0,0.0,100,0.00,,,0.01,WeatherDisplay:10.37,2013-02-23 12:30:00,
2013-02-23 07:34:00,32.5,32.5,30.03,NW,305,0.0,0.0,100,0.00,,,0.01,WeatherDisplay:10.37,2013-02-23 12:34:00,
2013-02-23 07:35:00,32.8,32.8,30.03,NW,305,0.0,0.0,100,0.00,,,0.01,WeatherDisplay:10.37,2013-02-23 12:35:00,
2013-02-23 07:39:00,33.1,33.1,30.02,NW,305,0.0,0.0,100,0.00,,,0.01,WeatherDisplay:10.37,2013-02-23 12:39:00,
2013-02-23 07:40:00,31.6,31.6,30.02,NW,305,0.0,0.0,100,0.00,,,0.01,WeatherDisplay:10.37,2013-02-23 12:40:00,
2013-02-23 07:44:00,32.0,32.0,30.01,NW,305,0.0,0.0,100,0.00,,,0.01,WeatherDisplay:10.37,2013-02-23 12:44:00,
2013-02-23 07:45:00,31.6,31.6,30.01,NW,305,0.0,0.0,100,0.00,,,0.01,WeatherDisplay:10.37,2013-02-23 12:45:00,
2013-02-23 07:49:00,34.2,34.2,30.02,NW,305,0.0,0.0,100,0.00,,,0.01,WeatherDisplay:10.37,2013-02-23 12:49:00,
2013-02-23 07:50:00,34.2,34.2,30.02,NW,305,0.0,0.0,100,0.00,,,0.01,WeatherDisplay:10.37,2013-02-23 12:50:00,
2013-02-23 07:54:00,34.0,34.0,30.02,NW,305,0.0,0.0,100,0.00,,,0.01,WeatherDisplay:10.37,2013-02-23 12:54:00,
2013-02-23 07:55:00,34.0,34.0,30.02,NW,305,0.0,0.0,100,0.00,,,0.01,WeatherDisplay:10.37,2013-02-23 12:55:00,
2013-02-23 07:59:00,33.6,33.6,30.02,NW,305,0.0,0.0,100,0.00,,,0.01,WeatherDisplay:10.37,2013-02-23 12:59:00,
2013-02-23 08:00:00,33.6,33.6,30.02,NW,305,0.0,0.0,100,0.00,,,0.01,WeatherDisplay:10.37,2013-02-23 13:00:00,
2013-02-23 08:04:00,33.1,33.1,30.02,North,11,0.0,0.0,100,0.00,,,0.01,WeatherDisplay:10.37,2013-02-23 13:04:00,
2013-02-23 08:05:00,33.4,33.4,30.02,North,11,0.0,0.0,100,0.00,,,0.01,WeatherDisplay:10.37,2013-02-23 13:05:00,
2013-02-23 08:10:00,33.9,33.9,30.02,North,11,0.0,0.0,100,0.00,,,0.01,WeatherDisplay:10.37,2013-02-23 13:10:00,
2013-02-23 08:11:00,32.9,32.9,30.02,North,11,0.0,0.0,100,0.00,,,0.01,WeatherDisplay:10.37,2013-02-23 13:11:00,
2013-02-23 08:15:00,32.6,32.6,30.02,North,11,0.0,0.0,100,0.00,,,0.01,WeatherDisplay:10.37,2013-02-23 13:15:00,
2013-02-23 08:16:00,34.1,34.1,30.02,North,11,0.0,0.0,100,0.00,,,0.01,WeatherDisplay:10.37,2013-02-23 13:16:00,
2013-02-23 08:20:00,34.8,34.8,30.02,North,11,0.0,0.0,100,0.00,,,0.01,WeatherDisplay:10.37,2013-02-23 13:20:00,
2013-02-23 08:21:00,35.0,35.0,30.02,North,11,0.0,0.0,100,0.00,,,0.01,WeatherDisplay:10.37,2013-02-23 13:21:00,
2013-02-23 08:25:00,34.6,33.8,30.01,North,11,0.0,0.0,97,0.00,CLR,,0.01,WeatherDisplay:10.37,2013-02-23 13:25:00,
2013-02-23 08:26:00,34.7,34.2,30.01,North,11,0.0,0.0,98,0.00,CLR,,0.01,WeatherDisplay:10.37,2013-02-23 13:26:00,
2013-02-23 08:27:00,35.3,34.5,30.01,North,11,0.0,0.0,97,0.00,CLR,,0.01,WeatherDisplay:10.37,2013-02-23 13:27:00,
2013-02-23 08:30:00,34.1,33.3,30.01,North,11,0.0,0.0,97,0.00,CLR,,0.01,WeatherDisplay:10.37,2013-02-23 13:30:00,
2013-02-23 08:31:00,34.1,33.3,30.01,North,11,0.0,0.0,97,0.00,CLR,,0.01,WeatherDisplay:10.37,2013-02-23 13:31:00,
2013-02-23 08:32:00,35.0,34.2,30.01,North,11,0.0,0.0,97,0.00,CLR,,0.01,WeatherDisplay:10.37,2013-02-23 13:32:00,
2013-02-23 08:36:00,33.9,32.9,30.01,North,11,0.0,0.0,96,0.00,CLR,,0.01,WeatherDisplay:10.37,2013-02-23 13:36:00,
2013-02-23 08:37:00,34.2,33.2,30.01,North,11,0.0,0.0,96,0.00,CLR,,0.01,WeatherDisplay:10.37,2013-02-23 13:37:00,
2013-02-23 08:41:00,33.8,32.8,30.01,North,11,0.0,0.0,96,0.00,CLR,,0.01,WeatherDisplay:10.37,2013-02-23 13:41:00,
2013-02-23 08:42:00,34.8,34.0,30.01,North,11,0.0,0.0,97,0.00,CLR,,0.01,WeatherDisplay:10.37,2013-02-23 13:42:00,
2013-02-23 08:46:00,34.1,33.1,30.02,North,11,0.0,0.0,96,0.00,CLR,,0.01,WeatherDisplay:10.37,2013-02-23 13:46:00,
2013-02-23 08:47:00,34.0,33.0,30.02,North,11,0.0,0.0,96,0.00,CLR,,0.01,WeatherDisplay:10.37,2013-02-23 13:47:00,
2013-02-23 08:51:00,34.2,33.7,30.01,North,11,0.0,0.0,98,0.00,CLR,,0.01,WeatherDisplay:10.37,2013-02-23 13:51:00,
2013-02-23 08:52:00,33.8,33.0,30.01,North,11,0.0,0.0,97,0.00,CLR,,0.01,WeatherDisplay:10.37,2013-02-23 13:52:00,
2013-02-23 08:56:00,34.3,32.8,30.00,North,11,0.0,0.0,94,0.00,CLR,,0.01,WeatherDisplay:10.37,2013-02-23 13:56:00,
2013-02-23 08:59:00,34.8,33.2,30.00,North,11,0.0,0.0,94,0.00,CLR,,0.01,WeatherDisplay:10.37,2013-02-23 13:59:00,
2013-02-23 09:01:00,35.1,33.5,30.00,North,11,0.0,0.0,94,0.00,CLR,,0.01,WeatherDisplay:10.37,2013-02-23 14:01:00,
2013-02-23 09:02:00,34.7,33.2,30.00,North,11,0.0,0.0,94,0.00,CLR,,0.01,WeatherDisplay:10.37,2013-02-23 14:02:00,
2013-02-23 09:04:00,35.1,33.3,30.00,North,11,0.0,0.0,93,0.00,CLR,,0.01,WeatherDisplay:10.37,2013-02-23 14:04:00,
2013-02-23 09:07:00,35.6,33.8,30.00,North,11,0.0,0.0,93,0.00,CLR,,0.01,WeatherDisplay:10.37,2013-02-23 14:07:00,
2013-02-23 09:09:00,35.5,33.4,30.00,North,11,0.0,0.0,92,0.00,CLR,,0.01,WeatherDisplay:10.37,2013-02-23 14:09:00,
2013-02-23 09:12:00,34.8,33.0,30.00,North,11,0.0,0.0,93,0.00,CLR,,0.01,WeatherDisplay:10.37,2013-02-23 14:12:00,
2013-02-23 09:14:00,35.6,34.0,30.00,North,11,0.0,0.0,94,0.00,CLR,,0.01,WeatherDisplay:10.37,2013-02-23 14:14:00,
2013-02-23 09:17:00,35.3,33.5,30.00,North,11,0.0,0.0,93,0.00,CLR,,0.01,WeatherDisplay:10.37,2013-02-23 14:17:00,
2013-02-23 09:20:00,35.7,33.9,29.99,North,11,0.0,0.0,93,0.00,CLR,,0.01,WeatherDisplay:10.37,2013-02-23 14:20:00,
2013-02-23 09:22:00,35.9,34.1,29.99,North,11,0.0,0.0,93,0.00,CLR,,0.01,WeatherDisplay:10.37,2013-02-23 14:22:00,
2013-02-23 09:25:00,34.9,32.8,29.99,North,11,0.0,0.0,92,0.00,CLR,,0.01,WeatherDisplay:10.37,2013-02-23 14:25:00,
2013-02-23 09:27:00,35.8,34.2,29.99,North,11,0.0,0.0,94,0.00,CLR,,0.01,WeatherDisplay:10.37,2013-02-23 14:27:00,
2013-02-23 09:30:00,36.1,34.0,29.99,North,11,0.0,0.0,92,0.00,CLR,,0.01,WeatherDisplay:10.37,2013-02-23 14:30:00,
2013-02-23 09:32:00,35.6,33.5,29.99,North,11,0.0,0.0,92,0.00,CLR,,0.01,WeatherDisplay:10.37,2013-02-23 14:32:00,
2013-02-23 09:33:00,36.4,34.3,29.99,North,11,0.0,0.0,92,0.00,CLR,,0.01,WeatherDisplay:10.37,2013-02-23 14:33:00,
2013-02-23 09:35:00,36.1,34.0,29.99,North,11,0.0,0.0,92,0.00,CLR,,0.01,WeatherDisplay:10.37,2013-02-23 14:35:00,
2013-02-23 09:37:00,36.2,33.8,29.99,North,11,0.0,0.0,91,0.00,CLR,,0.01,WeatherDisplay:10.37,2013-02-23 14:37:00,
2013-02-23 09:38:00,36.3,33.4,29.99,North,11,0.0,0.0,89,0.00,CLR,,0.01,WeatherDisplay:10.37,2013-02-23 14:38:00,
2013-02-23 09:40:00,36.0,33.1,29.98,North,11,0.0,0.0,89,0.00,CLR,,0.01,WeatherDisplay:10.37,2013-02-23 14:40:00,
2013-02-23 09:42:00,36.6,33.7,29.98,North,11,0.0,0.0,89,0.00,CLR,,0.01,WeatherDisplay:10.37,2013-02-23 14:42:00,
2013-02-23 09:43:00,36.5,33.6,29.98,North,11,0.0,0.0,89,0.00,CLR,,0.01,WeatherDisplay:10.37,2013-02-23 14:43:00,
2013-02-23 09:44:00,36.5,33.6,29.98,North,11,0.0,0.0,89,0.00,CLR,,0.01,WeatherDisplay:10.37,2013-02-23 14:44:00,
2013-02-23 09:46:00,36.5,33.6,29.98,North,11,0.0,0.0,89,0.00,CLR,,0.01,WeatherDisplay:10.37,2013-02-23 14:46:00,
2013-02-23 09:47:00,36.6,33.9,29.98,North,11,0.0,0.0,90,0.00,CLR,,0.01,WeatherDisplay:10.37,2013-02-23 14:47:00,
2013-02-23 09:48:00,36.6,33.9,29.99,North,11,0.0,0.0,90,0.00,CLR,,0.01,WeatherDisplay:10.37,2013-02-23 14:48:00,
2013-02-23 09:49:00,36.1,33.2,29.99,North,11,0.0,0.0,89,0.00,CLR,,0.01,WeatherDisplay:10.37,2013-02-23 14:49:00,
2013-02-23 09:51:00,37.2,34.3,29.98,North,11,0.0,0.0,89,0.00,CLR,,0.01,WeatherDisplay:10.37,2013-02-23 14:51:00,
2013-02-23 09:52:00,36.9,33.1,29.98,North,11,0.0,0.0,86,0.00,CLR,,0.01,WeatherDisplay:10.37,2013-02-23 14:52:00,
2013-02-23 09:53:00,37.2,33.4,29.98,North,11,0.0,0.0,86,0.00,CLR,,0.01,WeatherDisplay:10.37,2013-02-23 14:53:00,
2013-02-23 09:54:00,37.3,33.8,29.98,North,11,0.0,0.0,87,0.00,CLR,,0.01,WeatherDisplay:10.37,2013-02-23 14:54:00,
2013-02-23 09:56:00,36.8,33.3,29.99,North,11,0.0,0.0,87,0.00,CLR,,0.01,WeatherDisplay:10.37,2013-02-23 14:56:00,
2013-02-23 09:57:00,37.1,33.9,29.99,North,11,0.0,0.0,88,0.00,CLR,,0.01,WeatherDisplay:10.37,2013-02-23 14:57:00,
2013-02-23 09:58:00,37.1,34.2,29.99,North,11,0.0,0.0,89,0.00,CLR,,0.01,WeatherDisplay:10.37,2013-02-23 14:58:00,
2013-02-23 09:59:00,37.1,34.4,29.99,North,11,0.0,0.0,90,0.00,CLR,,0.01,WeatherDisplay:10.37,2013-02-23 14:59:00,
2013-02-23 10:01:00,36.9,33.4,29.99,NW,315,1.3,4.6,87,0.00,CLR,,0.01,WeatherDisplay:10.37,2013-02-23 15:01:00,
2013-02-23 10:03:00,36.8,33.9,29.99,NW,315,0.0,0.0,89,0.00,CLR,,0.01,WeatherDisplay:10.37,2013-02-23 15:03:00,
2013-02-23 10:04:00,36.9,33.7,29.99,NW,315,0.0,0.0,88,0.00,CLR,,0.01,WeatherDisplay:10.37,2013-02-23 15:04:00,
2013-02-23 10:06:00,37.4,34.2,29.99,NW,315,0.0,0.0,88,0.00,CLR,,0.01,WeatherDisplay:10.37,2013-02-23 15:06:00,
2013-02-23 10:08:00,37.1,33.6,29.98,NW,315,0.0,0.0,87,0.00,CLR,,0.01,WeatherDisplay:10.37,2013-02-23 15:08:00,
2013-02-23 10:09:00,37.6,34.1,29.98,NW,315,0.0,0.0,87,0.00,CLR,,0.01,WeatherDisplay:10.37,2013-02-23 15:09:00,
2013-02-23 10:11:00,37.4,33.3,29.99,NW,315,0.0,0.0,85,0.00,CLR,,0.01,WeatherDisplay:10.37,2013-02-23 15:11:00,
2013-02-23 10:13:00,37.7,33.9,29.98,NW,315,0.0,0.0,86,0.00,CLR,,0.01,WeatherDisplay:10.37,2013-02-23 15:13:00,
2013-02-23 10:14:00,37.3,32.9,29.98,NW,315,0.0,0.0,84,0.00,CLR,,0.01,WeatherDisplay:10.37,2013-02-23 15:14:00,
2013-02-23 10:16:00,37.5,33.4,29.98,NW,315,0.0,0.0,85,0.00,CLR,,0.01,WeatherDisplay:10.37,2013-02-23 15:16:00,
2013-02-23 10:18:00,37.9,34.1,29.98,NW,315,0.0,0.0,86,0.00,CLR,,0.01,WeatherDisplay:10.37,2013-02-23 15:18:00,
2013-02-23 10:19:00,37.9,34.1,29.98,NW,315,0.0,0.0,86,0.00,CLR,,0.01,WeatherDisplay:10.37,2013-02-23 15:19:00,
2013-02-23 10:21:00,37.7,33.3,29.98,NW,315,0.0,0.0,84,0.00,CLR,,0.01,WeatherDisplay:10.37,2013-02-23 15:21:00,
2013-02-23 10:23:00,38.1,33.7,29.98,NW,315,0.0,0.0,84,0.00,CLR,,0.01,WeatherDisplay:10.37,2013-02-23 15:23:00,
2013-02-23 10:24:00,38.0,33.6,29.98,NW,315,0.0,0.0,84,0.00,CLR,,0.01,WeatherDisplay:10.37,2013-02-23 15:24:00,
2013-02-23 10:26:00,37.6,32.9,29.98,NW,315,0.0,0.0,83,0.00,CLR,,0.01,WeatherDisplay:10.37,2013-02-23 15:26:00,
2013-02-23 10:29:00,37.9,33.5,29.98,NW,315,0.0,0.0,84,0.00,CLR,,0.01,WeatherDisplay:10.37,2013-02-23 15:29:00,
2013-02-23 10:31:00,37.8,32.5,29.98,NW,315,0.0,0.0,81,0.00,CLR,,0.01,WeatherDisplay:10.37,2013-02-23 15:31:00,
2013-02-23 10:34:00,37.8,32.5,29.98,NW,315,0.0,0.0,81,0.00,CLR,,0.01,WeatherDisplay:10.37,2013-02-23 15:34:00,
2013-02-23 10:35:00,38.0,32.7,29.98,NW,315,0.0,0.0,81,0.00,CLR,,0.01,WeatherDisplay:10.37,2013-02-23 15:35:00,
2013-02-23 10:37:00,38.4,33.4,29.98,NW,315,0.0,0.0,82,0.00,CLR,,0.01,WeatherDisplay:10.37,2013-02-23 15:37:00,
2013-02-23 10:39:00,38.2,32.3,29.98,NW,315,0.0,0.0,79,0.00,CLR,,0.01,WeatherDisplay:10.37,2013-02-23 15:39:00,
2013-02-23 10:40:00,37.8,32.2,29.98,NW,315,0.0,0.0,80,0.00,CLR,,0.01,WeatherDisplay:10.37,2013-02-23 15:40:00,
2013-02-23 10:42:00,38.2,32.6,29.98,NW,315,0.0,0.0,80,0.00,CLR,,0.01,WeatherDisplay:10.37,2013-02-23 15:42:00,
2013-02-23 10:44:00,38.5,31.6,29.98,NW,315,0.0,0.0,76,0.00,CLR,,0.01,WeatherDisplay:10.37,2013-02-23 15:44:00,
2013-02-23 10:45:00,38.7,32.4,29.98,NW,315,0.0,0.0,78,0.00,CLR,,0.01,WeatherDisplay:10.37,2013-02-23 15:45:00,
2013-02-23 10:47:00,38.7,32.4,29.98,NW,315,0.0,0.0,78,0.00,CLR,,0.01,WeatherDisplay:10.37,2013-02-23 15:47:00,
2013-02-23 10:49:00,38.8,32.8,29.98,NW,315,0.0,0.0,79,0.00,CLR,,0.01,WeatherDisplay:10.37,2013-02-23 15:49:00,
2013-02-23 10:50:00,38.7,31.1,29.98,NW,315,0.0,0.0,74,0.00,CLR,,0.01,WeatherDisplay:10.37,2013-02-23 15:50:00,
2013-02-23 10:52:00,38.6,32.0,29.98,NW,315,0.0,0.0,77,0.00,CLR,,0.01,WeatherDisplay:10.37,2013-02-23 15:52:00,
2013-02-23 10:54:00,38.8,31.9,29.98,NW,315,0.0,0.0,76,0.00,CLR,,0.01,WeatherDisplay:10.37,2013-02-23 15:54:00,
2013-02-23 10:55:00,38.8,31.9,29.98,NW,315,0.0,0.0,76,0.00,CLR,,0.01,WeatherDisplay:10.37,2013-02-23 15:55:00,
2013-02-23 10:57:00,39.0,30.7,29.98,NW,315,0.0,0.0,72,0.00,CLR,,0.01,WeatherDisplay:10.37,2013-02-23 15:57:00,
2013-02-23 10:59:00,39.3,31.7,29.99,NW,315,0.0,0.0,74,0.00,CLR,,0.01,WeatherDisplay:10.37,2013-02-23 15:59:00,
2013-02-23 11:00:00,38.9,31.3,29.99,NW,315,0.0,0.0,74,0.00,CLR,,0.01,WeatherDisplay:10.37,2013-02-23 16:00:00,
2013-02-23 11:03:00,39.2,32.3,29.99,NW,315,0.0,0.0,76,0.00,CLR,,0.01,WeatherDisplay:10.37,2013-02-23 16:03:00,
2013-02-23 11:04:00,39.1,32.2,29.99,NW,315,0.0,0.0,76,0.00,CLR,,0.01,WeatherDisplay:10.37,2013-02-23 16:04:00,
2013-02-23 11:05:00,39.2,31.3,29.99,NW,326,2.0,4.8,73,0.00,CLR,,0.01,WeatherDisplay:10.37,2013-02-23 16:05:00,
2013-02-23 11:08:00,39.0,30.7,29.99,NW,316,4.3,5.8,72,0.00,CLR,,0.01,WeatherDisplay:10.37,2013-02-23 16:08:00,
2013-02-23 11:10:00,38.7,30.4,29.99,NNW,340,3.8,5.8,72,0.00,CLR,,0.01,WeatherDisplay:10.37,2013-02-23 16:10:00,
2013-02-23 11:11:00,39.0,31.7,29.99,North,349,0.7,5.8,75,0.00,CLR,,0.01,WeatherDisplay:10.37,2013-02-23 16:11:00,
2013-02-23 11:13:00,39.0,31.4,30.00,WNW,288,2.8,8.1,74,0.00,CLR,,0.01,WeatherDisplay:10.37,2013-02-23 16:13:00,
2013-02-23 11:15:00,39.2,32.3,30.00,NW,322,0.6,5.0,76,0.00,CLR,,0.01,WeatherDisplay:10.37,2013-02-23 16:15:00,
2013-02-23 11:16:00,38.9,31.3,30.00,NW,318,2.1,5.3,74,0.00,CLR,,0.01,WeatherDisplay:10.37,2013-02-23 16:16:00,
2013-02-23 11:18:00,38.8,31.6,30.00,NW,306,1.9,5.5,75,0.00,CLR,,0.01,WeatherDisplay:10.37,2013-02-23 16:18:00,
2013-02-23 11:20:00,39.3,32.4,30.00,West,261,2.8,8.1,76,0.00,CLR,,0.01,WeatherDisplay:10.37,2013-02-23 16:20:00,
2013-02-23 11:21:00,38.9,32.3,30.00,NNW,342,2.1,5.8,77,0.00,CLR,,0.01,WeatherDisplay:10.37,2013-02-23 16:21:00,
2013-02-23 11:23:00,39.0,32.4,29.99,NW,323,3.3,5.8,77,0.00,CLR,,0.01,WeatherDisplay:10.37,2013-02-23 16:23:00,
2013-02-23 11:25:00,39.0,32.1,29.99,NNW,337,3.7,6.9,76,0.00,CLR,,0.01,WeatherDisplay:10.37,2013-02-23 16:25:00,
2013-02-23 11:26:00,38.9,32.6,29.99,WNW,288,3.0,6.0,78,0.00,CLR,,0.01,WeatherDisplay:10.37,2013-02-23 16:26:00,
2013-02-23 11:28:00,39.1,32.2,29.99,WNW,301,1.2,4.6,76,0.00,CLR,,0.01,WeatherDisplay:10.37,2013-02-23 16:28:00,
2013-02-23 11:30:00,39.3,33.3,29.98,NW,325,0.2,4.8,79,0.00,CLR,,0.01,WeatherDisplay:10.37,2013-02-23 16:30:00,
2013-02-23 11:31:00,39.4,32.5,29.98,WNW,285,2.8,6.9,76,0.00,CLR,,0.01,WeatherDisplay:10.37,2013-02-23 16:31:00,
2013-02-23 11:34:00,39.8,32.5,29.98,West,270,0.1,6.9,75,0.00,CLR,,0.01,WeatherDisplay:10.37,2013-02-23 16:34:00,
2013-02-23 11:35:00,40.3,32.0,29.97,West,277,0.9,0.0,72,0.00,CLR,,0.01,WeatherDisplay:10.37,2013-02-23 16:35:00,
2013-02-23 11:36:00,40.2,31.5,29.98,West,277,0.0,4.6,71,0.00,CLR,,0.01,WeatherDisplay:10.37,2013-02-23 16:36:00,
2013-02-23 11:40:00,40.3,31.6,29.98,WNW,295,5.6,8.1,71,0.00,CLR,,0.01,WeatherDisplay:10.37,2013-02-23 16:40:00,
2013-02-23 11:41:00,39.9,30.5,29.98,WNW,295,0.0,6.9,69,0.00,CLR,,0.01,WeatherDisplay:10.37,2013-02-23 16:41:00,
2013-02-23 11:45:00,41.0,30.5,29.98,NW,322,1.3,5.9,66,0.00,CLR,,0.01,WeatherDisplay:10.37,2013-02-23 16:45:00,
2013-02-23 11:46:00,40.8,29.9,29.98,NW,318,3.0,6.9,65,0.00,CLR,,0.01,WeatherDisplay:10.37,2013-02-23 16:46:00,
2013-02-23 11:50:00,41.0,30.1,29.98,WNW,287,5.2,6.9,65,0.00,CLR,,0.01,WeatherDisplay:10.37,2013-02-23 16:50:00,
2013-02-23 11:51:00,41.1,30.6,29.98,WNW,295,3.0,6.9,66,0.00,CLR,,0.01,WeatherDisplay:10.37,2013-02-23 16:51:00,
2013-02-23 11:55:00,40.7,30.2,29.98,NNW,332,1.4,6.9,66,0.00,CLR,,0.01,WeatherDisplay:10.37,2013-02-23 16:55:00,
2013-02-23 11:56:00,41.0,30.9,29.98,NNW,343,3.0,6.9,67,0.00,CLR,,0.01,WeatherDisplay:10.37,2013-02-23 16:56:00,
2013-02-23 12:00:00,41.0,32.0,29.98,NW,325,0.0,0.0,70,0.00,CLR,,0.01,WeatherDisplay:10.37,2013-02-23 17:00:00,
2013-02-23 12:01:00,41.0,31.2,29.98,NW,325,0.0,0.0,68,0.00,CLR,,0.01,WeatherDisplay:10.37,2013-02-23 17:01:00,
2013-02-23 12:02:00,41.3,31.2,29.98,NW,325,0.0,0.0,67,0.00,CLR,,0.01,WeatherDisplay:10.37,2013-02-23 17:02:00,
2013-02-23 12:05:00,42.0,31.1,29.98,West,278,0.0,3.5,65,0.00,CLR,,0.01,WeatherDisplay:10.37,2013-02-23 17:05:00,
2013-02-23 12:06:00,41.6,29.9,29.98,West,278,0.0,0.0,63,0.00,CLR,,0.01,WeatherDisplay:10.37,2013-02-23 17:06:00,
2013-02-23 12:07:00,41.8,30.5,29.97,West,278,0.0,0.0,64,0.00,CLR,,0.01,WeatherDisplay:10.37,2013-02-23 17:07:00,
2013-02-23 12:10:00,41.5,29.8,29.97,NW,316,0.0,3.5,63,0.00,CLR,,0.01,WeatherDisplay:10.37,2013-02-23 17:10:00,
2013-02-23 12:11:00,41.2,30.3,29.97,NW,316,0.0,0.0,65,0.00,CLR,,0.01,WeatherDisplay:10.37,2013-02-23 17:11:00,
2013-02-23 12:12:00,41.8,30.5,29.97,NW,316,0.0,0.0,64,0.00,CLR,,0.01,WeatherDisplay:10.37,2013-02-23 17:12:00,
2013-02-23 12:15:00,41.4,30.9,29.97,NNW,346,0.0,0.0,66,0.00,CLR,,0.01,WeatherDisplay:10.37,2013-02-23 17:15:00,
2013-02-23 12:16:00,42.1,31.6,29.96,NNW,346,0.3,3.2,66,0.00,CLR,,0.01,WeatherDisplay:10.37,2013-02-23 17:16:00,
2013-02-23 12:17:00,42.0,30.3,29.96,NNW,346,0.5,3.5,63,0.00,CLR,,0.01,WeatherDisplay:10.37,2013-02-23 17:17:00,
2013-02-23 12:20:00,42.2,29.3,29.96,NNW,346,0.0,0.0,60,0.00,CLR,,0.01,WeatherDisplay:10.37,2013-02-23 17:20:00,
2013-02-23 12:21:00,42.5,29.6,29.96,NNW,346,0.0,0.0,60,0.00,CLR,,0.01,WeatherDisplay:10.37,2013-02-23 17:21:00,
2013-02-23 12:22:00,42.5,28.8,29.96,NNW,346,0.0,0.0,58,0.00,CLR,,0.01,WeatherDisplay:10.37,2013-02-23 17:22:00,
2013-02-23 12:23:00,42.4,28.7,29.96,NNW,346,0.0,0.0,58,0.00,CLR,,0.01,WeatherDisplay:10.37,2013-02-23 17:23:00,
2013-02-23 12:25:00,42.6,28.4,29.96,NNW,346,0.0,0.0,57,0.00,CLR,,0.01,WeatherDisplay:10.37,2013-02-23 17:25:00,
2013-02-23 12:27:00,42.5,28.3,29.96,NNW,346,0.0,0.0,57,0.00,CLR,,0.01,WeatherDisplay:10.37,2013-02-23 17:27:00,
2013-02-23 12:28:00,42.7,28.9,29.96,NNW,346,0.0,0.0,58,0.00,CLR,,0.01,WeatherDisplay:10.37,2013-02-23 17:28:00,
2013-02-23 12:31:00,42.6,28.8,29.96,NNW,346,0.0,0.0,58,0.00,CLR,,0.01,WeatherDisplay:10.37,2013-02-23 17:31:00,
2013-02-23 12:32:00,42.6,29.3,29.96,NNW,346,0.0,0.0,59,0.00,CLR,,0.01,WeatherDisplay:10.37,2013-02-23 17:32:00,
2013-02-23 12:33:00,42.6,28.8,29.96,NNW,346,0.0,0.0,58,0.00,CLR,,0.01,WeatherDisplay:10.37,2013-02-23 17:33:00,
2013-02-23 12:36:00,43.0,31.6,29.96,NNW,346,0.0,0.0,64,0.00,CLR,,0.01,WeatherDisplay:10.37,2013-02-23 17:36:00,
2013-02-23 12:37:00,43.2,30.2,29.96,NNW,346,0.0,0.0,60,0.00,CLR,,0.01,WeatherDisplay:10.37,2013-02-23 17:37:00,
2013-02-23 12:38:00,43.7,29.5,29.96,NNW,346,0.0,0.0,57,0.00,CLR,,0.01,WeatherDisplay:10.37,2013-02-23 17:38:00,
2013-02-23 12:41:00,43.6,28.9,29.96,West,261,1.3,5.7,56,0.00,CLR,,0.01,WeatherDisplay:10.37,2013-02-23 17:41:00,
2013-02-23 12:42:00,43.8,28.2,29.95,West,272,3.5,6.9,54,0.00,CLR,,0.01,WeatherDisplay:10.37,2013-02-23 17:42:00,
2013-02-23 12:43:00,43.6,28.5,29.95,NW,323,4.0,8.1,55,0.00,CLR,,0.01,WeatherDisplay:10.37,2013-02-23 17:43:00,
2013-02-23 12:46:00,42.9,27.8,29.95,WNW,284,5.7,6.9,55,0.00,CLR,,0.01,WeatherDisplay:10.37,2013-02-23 17:46:00,
2013-02-23 12:47:00,43.0,28.4,29.95,West,271,3.8,8.1,56,0.00,CLR,,0.01,WeatherDisplay:10.37,2013-02-23 17:47:00,
2013-02-23 12:48:00,43.4,29.6,29.95,WSW,250,4.9,6.9,58,0.00,CLR,,0.01,WeatherDisplay:10.37,2013-02-23 17:48:00,
2013-02-23 12:49:00,43.4,29.2,29.95,WSW,246,5.8,6.9,57,0.00,CLR,,0.01,WeatherDisplay:10.37,2013-02-23 17:49:00,
2013-02-23 12:51:00,43.4,28.7,29.95,WSW,246,0.0,6.9,56,0.00,CLR,,0.01,WeatherDisplay:10.37,2013-02-23 17:51:00,
2013-02-23 12:52:00,43.5,28.8,29.95,WNW,296,0.2,6.0,56,0.00,CLR,,0.01,WeatherDisplay:10.37,2013-02-23 17:52:00,
2013-02-23 12:53:00,43.7,28.1,29.95,West,272,2.8,5.8,54,0.00,CLR,,0.01,WeatherDisplay:10.37,2013-02-23 17:53:00,
2013-02-23 12:54:00,43.6,28.0,29.95,WNW,296,2.3,5.8,54,0.00,CLR,,0.01,WeatherDisplay:10.37,2013-02-23 17:54:00,
2013-02-23 12:56:00,43.5,28.8,29.94,WNW,288,0.5,8.1,56,0.00,CLR,,0.01,WeatherDisplay:10.37,2013-02-23 17:56:00,
2013-02-23 12:57:00,43.5,28.8,29.94,NNW,329,1.6,4.3,56,0.00,CLR,,0.01,WeatherDisplay:10.37,2013-02-23 17:57:00,
2013-02-23 12:58:00,43.6,29.4,29.94,NW,312,0.5,4.6,57,0.00,CLR,,0.01,WeatherDisplay:10.37,2013-02-23 17:58:00,
2013-02-23 12:59:00,43.7,29.0,29.94,NW,312,0.0,0.0,56,0.00,CLR,,0.01,WeatherDisplay:10.37,2013-02-23 17:59:00,
2013-02-23 13:01:00,44.1,28.0,29.94,West,268,0.3,3.5,53,0.00,CLR,,0.01,WeatherDisplay:10.37,2013-02-23 18:01:00,
2013-02-23 13:02:00,43.8,28.7,29.94,WNW,292,0.4,3.5,55,0.00,CLR,,0.01,WeatherDisplay:10.37,2013-02-23 18:02:00,
2013-02-23 13:03:00,44.1,28.0,29.94,WNW,292,0.0,3.5,53,0.00,CLR,,0.01,WeatherDisplay:10.37,2013-02-23 18:03:00,
2013-02-23 13:04:00,44.1,27.6,29.94,WNW,292,0.0,0.0,52,0.00,CLR,,0.01,WeatherDisplay:10.37,2013-02-23 18:04:00,
2013-02-23 13:06:00,43.7,28.6,29.94,NW,313,0.0,4.6,55,0.00,CLR,,0.01,WeatherDisplay:10.37,2013-02-23 18:06:00,
2013-02-23 13:07:00,43.8,28.7,29.94,West,274,1.7,3.4,55,0.00,CLR,,0.01,WeatherDisplay:10.37,2013-02-23 18:07:00,
2013-02-23 13:08:00,44.1,27.6,29.94,WSW,253,1.0,6.0,52,0.00,CLR,,0.01,WeatherDisplay:10.37,2013-02-23 18:08:00,
2013-02-23 13:09:00,44.1,28.0,29.94,West,280,2.7,5.8,53,0.00,CLR,,0.01,WeatherDisplay:10.37,2013-02-23 18:09:00,
2013-02-23 13:11:00,44.4,27.4,29.94,WNW,287,0.0,3.5,51,0.00,CLR,,0.01,WeatherDisplay:10.37,2013-02-23 18:11:00,
2013-02-23 13:12:00,44.6,27.6,29.94,WNW,287,0.0,0.0,51,0.00,CLR,,0.01,WeatherDisplay:10.37,2013-02-23 18:12:00,
2013-02-23 13:13:00,44.5,28.0,29.94,WNW,287,0.0,0.0,52,0.00,CLR,,0.01,WeatherDisplay:10.37,2013-02-23 18:13:00,
2013-02-23 13:14:00,44.5,29.3,29.94,WNW,287,0.0,0.0,55,0.00,CLR,,0.01,WeatherDisplay:10.37,2013-02-23 18:14:00,
2013-02-23 13:16:00,44.9,28.3,29.94,WNW,287,0.0,0.0,52,0.00,CLR,,0.01,WeatherDisplay:10.37,2013-02-23 18:16:00,
2013-02-23 13:17:00,44.7,26.7,29.94,WNW,287,0.0,0.0,49,0.00,CLR,,0.01,WeatherDisplay:10.37,2013-02-23 18:17:00,
2013-02-23 13:19:00,44.9,27.8,29.94,WNW,287,0.0,0.0,51,0.00,CLR,,0.01,WeatherDisplay:10.37,2013-02-23 18:19:00,
2013-02-23 13:22:00,44.8,27.3,29.93,NW,308,0.0,5.8,50,0.00,CLR,,0.01,WeatherDisplay:10.37,2013-02-23 18:22:00,
2013-02-23 13:23:00,45.2,27.2,29.93,West,280,5.6,6.9,49,0.00,CLR,,0.01,WeatherDisplay:10.37,2013-02-23 18:23:00,
2013-02-23 13:24:00,45.1,27.1,29.93,West,280,3.0,6.9,49,0.00,CLR,,0.01,WeatherDisplay:10.37,2013-02-23 18:24:00,
2013-02-23 13:26:00,45.7,27.6,29.93,West,280,0.0,0.0,49,0.00,CLR,,0.01,WeatherDisplay:10.37,2013-02-23 18:26:00,
2013-02-23 13:28:00,45.6,26.0,29.93,NNW,342,4.3,5.8,46,0.00,CLR,,0.01,WeatherDisplay:10.37,2013-02-23 18:28:00,
2013-02-23 13:29:00,45.6,27.0,29.93,NW,311,1.9,5.8,48,0.00,CLR,,0.01,WeatherDisplay:10.37,2013-02-23 18:29:00,
2013-02-23 13:31:00,45.9,25.7,29.93,WNW,295,2.5,0.0,45,0.00,CLR,,0.01,WeatherDisplay:10.37,2013-02-23 18:31:00,
2013-02-23 13:33:00,46.5,27.3,29.92,WNW,301,1.3,4.6,47,0.00,CLR,,0.01,WeatherDisplay:10.37,2013-02-23 18:33:00,
2013-02-23 13:34:00,46.1,25.9,29.92,WNW,301,0.0,0.0,45,0.00,CLR,,0.01,WeatherDisplay:10.37,2013-02-23 18:34:00,
2013-02-23 13:37:00,46.3,26.6,29.92,West,281,0.9,4.6,46,0.00,CLR,,0.01,WeatherDisplay:10.37,2013-02-23 18:37:00,
2013-02-23 13:38:00,46.7,25.4,29.92,WSW,256,0.0,4.6,43,0.00,CLR,,0.01,WeatherDisplay:10.37,2013-02-23 18:38:00,
2013-02-23 13:39:00,46.7,24.8,29.92,WSW,256,0.0,0.0,42,0.00,CLR,,0.01,WeatherDisplay:10.37,2013-02-23 18:39:00,
2013-02-23 13:42:00,47.3,25.3,29.92,WSW,256,0.5,3.5,42,0.00,CLR,,0.01,WeatherDisplay:10.37,2013-02-23 18:42:00,
2013-02-23 13:43:00,47.5,26.1,29.91,WSW,256,0.0,0.0,43,0.00,CLR,,0.01,WeatherDisplay:10.37,2013-02-23 18:43:00,
2013-02-23 13:44:00,47.9,26.5,29.91,WNW,291,1.7,5.4,43,0.00,CLR,,0.01,WeatherDisplay:10.37,2013-02-23 18:44:00,
2013-02-23 13:47:00,47.3,24.8,29.92,NNW,346,3.1,6.9,41,0.00,CLR,,0.01,WeatherDisplay:10.37,2013-02-23 18:47:00,
2013-02-23 13:48:00,47.4,25.4,29.92,WNW,284,2.1,6.9,42,0.00,CLR,,0.01,WeatherDisplay:10.37,2013-02-23 18:48:00,
2013-02-23 13:49:00,47.3,25.3,29.92,WNW,284,1.0,4.6,42,0.00,CLR,,0.01,WeatherDisplay:10.37,2013-02-23 18:49:00,
2013-02-23 13:52:00,47.5,26.1,29.92,WNW,284,0.0,0.0,43,0.00,CLR,,0.01,WeatherDisplay:10.37,2013-02-23 18:52:00,
2013-02-23 13:53:00,47.7,26.8,29.92,WNW,284,0.0,0.0,44,0.00,CLR,,0.01,WeatherDisplay:10.37,2013-02-23 18:53:00,
2013-02-23 13:54:00,47.9,25.9,29.92,WNW,284,0.0,0.0,42,0.00,CLR,,0.01,WeatherDisplay:10.37,2013-02-23 18:54:00,
2013-02-23 13:57:00,48.4,25.8,29.91,WNW,284,0.0,0.0,41,0.00,CLR,,0.01,WeatherDisplay:10.37,2013-02-23 18:57:00,
2013-02-23 13:59:00,48.5,24.6,29.91,WNW,282,2.6,5.8,39,0.00,CLR,,0.01,WeatherDisplay:10.37,2013-02-23 18:59:00,
2013-02-23 14:02:00,48.3,25.7,29.91,NW,308,0.0,0.0,41,0.00,CLR,,0.01,WeatherDisplay:10.37,2013-02-23 19:02:00,
2013-02-23 14:04:00,48.5,25.2,29.91,NW,308,0.0,0.0,40,0.00,CLR,,0.01,WeatherDisplay:10.37,2013-02-23 19:04:00,
2013-02-23 14:08:00,48.2,25.0,29.90,NW,308,0.0,0.0,40,0.00,CLR,,0.01,WeatherDisplay:10.37,2013-02-23 19:08:00,
2013-02-23 14:09:00,48.5,25.2,29.90,NW,308,0.0,0.0,40,0.00,CLR,,0.01,WeatherDisplay:10.37,2013-02-23 19:09:00,
2013-02-23 14:13:00,48.5,24.6,29.90,NW,308,0.0,0.0,39,0.00,CLR,,0.01,WeatherDisplay:10.37,2013-02-23 19:13:00,
2013-02-23 14:14:00,48.5,25.2,29.90,NW,308,0.0,0.0,40,0.00,CLR,,0.01,WeatherDisplay:10.37,2013-02-23 19:14:00,
2013-02-23 14:15:00,48.5,24.6,29.89,NW,308,0.0,0.0,39,0.00,CLR,,0.01,WeatherDisplay:10.37,2013-02-23 19:15:00,
2013-02-23 14:18:00,48.8,24.3,29.89,NW,308,0.0,0.0,38,0.00,CLR,,0.01,WeatherDisplay:10.37,2013-02-23 19:18:00,
2013-02-23 14:19:00,48.6,24.7,29.89,NW,308,0.0,0.0,39,0.00,CLR,,0.01,WeatherDisplay:10.37,2013-02-23 19:19:00,
2013-02-23 14:20:00,48.6,24.1,29.89,NW,308,0.0,0.0,38,0.00,CLR,,0.01,WeatherDisplay:10.37,2013-02-23 19:20:00,
2013-02-23 14:23:00,49.0,23.8,29.89,NW,308,0.0,0.0,37,0.00,CLR,,0.01,WeatherDisplay:10.37,2013-02-23 19:23:00,
2013-02-23 14:24:00,49.1,24.6,29.89,NW,308,0.0,0.0,38,0.00,CLR,,0.01,WeatherDisplay:10.37,2013-02-23 19:24:00,
2013-02-23 14:25:00,49.1,24.6,29.89,NW,308,0.0,0.0,38,0.00,CLR,,0.01,WeatherDisplay:10.37,2013-02-23 19:25:00,
2013-02-23 14:28:00,49.7,24.5,29.89,NW,308,0.0,0.0,37,0.00,CLR,,0.01,WeatherDisplay:10.37,2013-02-23 19:28:00,
2013-02-23 14:29:00,50.1,24.8,29.89,NW,308,0.0,0.0,37,0.00,CLR,,0.01,WeatherDisplay:10.37,2013-02-23 19:29:00,
2013-02-23 14:30:00,50.2,24.2,29.89,NW,308,0.0,0.0,36,0.00,CLR,,0.01,WeatherDisplay:10.37,2013-02-23 19:30:00,
2013-02-23 14:33:00,50.2,23.6,29.89,NW,308,0.0,0.0,35,0.00,CLR,,0.01,WeatherDisplay:10.37,2013-02-23 19:33:00,
2013-02-23 14:34:00,50.0,23.4,29.89,NW,308,0.0,0.0,35,0.00,CLR,,0.01,WeatherDisplay:10.37,2013-02-23 19:34:00,
2013-02-23 14:35:00,49.4,23.5,29.89,NW,308,0.0,0.0,36,0.00,CLR,,0.01,WeatherDisplay:10.37,2013-02-23 19:35:00,
2013-02-23 14:38:00,49.7,24.5,29.89,NW,308,0.0,0.0,37,0.00,CLR,,0.01,WeatherDisplay:10.37,2013-02-23 19:38:00,
2013-02-23 14:40:00,49.8,23.9,29.88,NW,308,0.0,0.0,36,0.00,CLR,,0.01,WeatherDisplay:10.37,2013-02-23 19:40:00,
2013-02-23 14:44:00,50.0,23.4,29.89,NW,308,0.0,0.0,35,0.00,CLR,,0.01,WeatherDisplay:10.37,2013-02-23 19:44:00,
2013-02-23 14:45:00,50.3,23.0,29.89,NW,308,0.0,0.0,34,0.00,CLR,,0.01,WeatherDisplay:10.37,2013-02-23 19:45:00,
2013-02-23 14:48:00,50.1,24.2,29.89,NW,308,0.0,0.0,36,0.00,CLR,,0.01,WeatherDisplay:10.37,2013-02-23 19:48:00,
2013-02-23 14:50:00,50.1,23.5,29.89,NW,308,0.0,0.0,35,0.00,CLR,,0.01,WeatherDisplay:10.37,2013-02-23 19:50:00,
2013-02-23 14:51:00,50.2,24.2,29.89,NW,308,0.0,0.0,36,0.00,CLR,,0.01,WeatherDisplay:10.37,2013-02-23 19:51:00,
2013-02-23 14:54:00,50.3,24.3,29.89,NW,308,0.0,0.0,36,0.00,CLR,,0.01,WeatherDisplay:10.37,2013-02-23 19:54:00,
2013-02-23 14:55:00,50.1,23.5,29.89,NW,308,0.0,0.0,35,0.00,CLR,,0.01,WeatherDisplay:10.37,2013-02-23 19:55:00,
2013-02-23 14:56:00,50.2,23.6,29.89,NW,308,0.0,0.0,35,0.00,CLR,,0.01,WeatherDisplay:10.37,2013-02-23 19:56:00,
2013-02-23 14:59:00,50.4,24.4,29.89,NW,308,0.0,0.0,36,0.00,CLR,,0.01,WeatherDisplay:10.37,2013-02-23 19:59:00,
2013-02-23 15:00:00,50.1,23.5,29.89,NW,308,0.0,0.0,35,0.00,CLR,,0.01,WeatherDisplay:10.37,2013-02-23 20:00:00,
2013-02-23 15:01:00,50.2,22.9,29.89,NW,308,0.0,0.0,34,0.00,CLR,,0.01,WeatherDisplay:10.37,2013-02-23 20:01:00,
2013-02-23 15:04:00,50.3,24.3,29.89,NW,308,0.0,0.0,36,0.00,CLR,,0.01,WeatherDisplay:10.37,2013-02-23 20:04:00,
2013-02-23 15:05:00,50.1,24.2,29.89,NW,308,0.0,0.0,36,0.00,CLR,,0.01,WeatherDisplay:10.37,2013-02-23 20:05:00,
2013-02-23 15:06:00,50.3,24.3,29.89,NW,308,0.0,0.0,36,0.00,CLR,,0.01,WeatherDisplay:10.37,2013-02-23 20:06:00,
2013-02-23 15:09:00,49.8,25.2,29.89,NW,308,0.0,0.0,38,0.00,CLR,,0.01,WeatherDisplay:10.37,2013-02-23 20:09:00,
2013-02-23 15:11:00,50.0,25.4,29.89,NW,308,0.0,0.0,38,0.00,CLR,,0.01,WeatherDisplay:10.37,2013-02-23 20:11:00,
2013-02-23 15:14:00,50.0,25.4,29.88,NW,308,0.0,0.0,38,0.00,CLR,,0.01,WeatherDisplay:10.37,2013-02-23 20:14:00,
2013-02-23 15:16:00,50.3,24.3,29.88,NNE,14,0.0,0.0,36,0.00,CLR,,0.01,WeatherDisplay:10.37,2013-02-23 20:16:00,
2013-02-23 15:19:00,50.1,25.5,29.88,NNE,14,0.0,0.0,38,0.00,CLR,,0.01,WeatherDisplay:10.37,2013-02-23 20:19:00,
2013-02-23 15:21:00,50.3,25.0,29.88,NW,308,0.3,2.3,37,0.00,CLR,,0.01,WeatherDisplay:10.37,2013-02-23 20:21:00,
2013-02-23 15:22:00,50.1,25.5,29.88,NW,308,0.0,0.0,38,0.00,CLR,,0.01,WeatherDisplay:10.37,2013-02-23 20:22:00,
2013-02-23 15:24:00,50.4,25.1,29.88,NW,308,0.0,0.0,37,0.00,CLR,,0.01,WeatherDisplay:10.37,2013-02-23 20:24:00,
2013-02-23 15:26:00,50.3,25.0,29.88,NW,308,0.0,0.0,37,0.00,CLR,,0.01,WeatherDisplay:10.37,2013-02-23 20:26:00,
2013-02-23 15:27:00,50.4,24.4,29.88,NW,308,0.0,0.0,36,0.00,CLR,,0.01,WeatherDisplay:10.37,2013-02-23 20:27:00,
2013-02-23 15:29:00,50.5,24.5,29.88,NW,308,0.0,0.0,36,0.00,CLR,,0.01,WeatherDisplay:10.37,2013-02-23 20:29:00,
2013-02-23 15:31:00,50.4,25.7,29.88,NW,308,0.0,0.0,38,0.00,CLR,,0.01,WeatherDisplay:10.37,2013-02-23 20:31:00,
2013-02-23 15:32:00,50.3,25.0,29.88,NW,308,0.0,0.0,37,0.00,CLR,,0.01,WeatherDisplay:10.37,2013-02-23 20:32:00,
2013-02-23 15:34:00,50.1,25.5,29.88,NW,308,0.0,0.0,38,0.00,CLR,,0.01,WeatherDisplay:10.37,2013-02-23 20:34:00,
2013-02-23 15:36:00,50.2,26.2,29.88,NW,308,0.0,0.0,39,0.00,CLR,,0.01,WeatherDisplay:10.37,2013-02-23 20:36:00,
2013-02-23 15:37:00,50.0,25.4,29.88,NW,308,0.0,0.0,38,0.00,CLR,,0.01,WeatherDisplay:10.37,2013-02-23 20:37:00,
2013-02-23 15:40:00,50.4,25.7,29.88,NW,308,0.0,0.0,38,0.00,CLR,,0.01,WeatherDisplay:10.37,2013-02-23 20:40:00,
2013-02-23 15:41:00,50.2,24.9,29.88,NW,308,0.0,0.0,37,0.00,CLR,,0.01,WeatherDisplay:10.37,2013-02-23 20:41:00,
2013-02-23 15:42:00,50.3,25.0,29.88,NW,308,0.0,0.0,37,0.00,CLR,,0.01,WeatherDisplay:10.37,2013-02-23 20:42:00,
2013-02-23 15:45:00,50.3,24.3,29.87,NW,308,0.0,0.0,36,0.00,CLR,,0.01,WeatherDisplay:10.37,2013-02-23 20:45:00,
2013-02-23 15:46:00,50.7,24.0,29.87,NW,308,0.0,0.0,35,0.00,CLR,,0.01,WeatherDisplay:10.37,2013-02-23 20:46:00,
2013-02-23 15:47:00,50.7,24.0,29.87,NW,308,0.0,0.0,35,0.00,CLR,,0.01,WeatherDisplay:10.37,2013-02-23 20:47:00,
2013-02-23 15:50:00,51.0,24.3,29.87,NW,308,0.0,0.0,35,0.00,CLR,,0.01,WeatherDisplay:10.37,2013-02-23 20:50:00,
2013-02-23 15:51:00,51.3,23.8,29.87,NW,308,0.0,0.0,34,0.00,CLR,,0.01,WeatherDisplay:10.37,2013-02-23 20:51:00,
2013-02-23 15:52:00,51.2,24.5,29.88,NW,308,0.0,0.0,35,0.00,CLR,,0.01,WeatherDisplay:10.37,2013-02-23 20:52:00,
2013-02-23 15:55:00,50.8,23.4,29.88,NW,308,0.0,0.0,34,0.00,CLR,,0.01,WeatherDisplay:10.37,2013-02-23 20:55:00,
2013-02-23 15:57:00,51.0,25.0,29.88,NW,308,0.0,0.0,36,0.00,CLR,,0.01,WeatherDisplay:10.37,2013-02-23 20:57:00,
2013-02-23 15:58:00,50.9,25.5,29.88,NW,308,0.0,0.0,37,0.00,CLR,,0.01,WeatherDisplay:10.37,2013-02-23 20:58:00,
2013-02-23 16:00:00,50.3,25.6,29.88,NNE,14,0.0,0.0,38,0.00,CLR,,0.01,WeatherDisplay:10.37,2013-02-23 21:00:00,
2013-02-23 16:02:00,50.5,25.8,29.88,NNE,14,0.0,0.0,38,0.00,CLR,,0.01,WeatherDisplay:10.37,2013-02-23 21:02:00,
2013-02-23 16:03:00,50.2,26.2,29.88,NNE,14,0.0,0.0,39,0.00,CLR,,0.01,WeatherDisplay:10.37,2013-02-23 21:03:00,
2013-02-23 16:05:00,50.3,26.3,29.88,NNE,14,0.0,0.0,39,0.00,CLR,,0.01,WeatherDisplay:10.37,2013-02-23 21:05:00,
2013-02-23 16:07:00,50.2,25.5,29.88,NNE,14,0.0,0.0,38,0.00,CLR,,0.01,WeatherDisplay:10.37,2013-02-23 21:07:00,
2013-02-23 16:08:00,50.4,25.7,29.88,NNE,14,0.0,0.0,38,0.00,CLR,,0.01,WeatherDisplay:10.37,2013-02-23 21:08:00,
2013-02-23 16:10:00,50.0,26.6,29.88,NNE,14,0.0,0.0,40,0.00,CLR,,0.01,WeatherDisplay:10.37,2013-02-23 21:10:00,
2013-02-23 16:12:00,50.0,25.4,29.88,NNE,14,0.0,0.0,38,0.00,CLR,,0.01,WeatherDisplay:10.37,2013-02-23 21:12:00,
2013-02-23 16:13:00,50.0,25.4,29.88,NNE,14,0.0,0.0,38,0.00,CLR,,0.01,WeatherDisplay:10.37,2013-02-23 21:13:00,
2013-02-23 16:14:00,50.5,25.8,29.88,NNE,14,0.0,0.0,38,0.00,CLR,,0.01,WeatherDisplay:10.37,2013-02-23 21:14:00,
2013-02-23 16:15:00,49.9,25.3,29.88,NNE,14,0.0,0.0,38,0.00,CLR,,0.01,WeatherDisplay:10.37,2013-02-23 21:15:00,
2013-02-23 16:17:00,50.4,26.3,29.87,NNE,14,0.0,0.0,39,0.00,CLR,,0.01,WeatherDisplay:10.37,2013-02-23 21:17:00,
2013-02-23 16:18:00,50.4,26.3,29.87,NNE,14,0.0,0.0,39,0.00,CLR,,0.01,WeatherDisplay:10.37,2013-02-23 21:18:00,
2013-02-23 16:19:00,50.3,26.3,29.87,NNE,14,0.0,0.0,39,0.00,CLR,,0.01,WeatherDisplay:10.37,2013-02-23 21:19:00,
2013-02-23 16:20:00,50.1,26.1,29.87,NNE,14,0.0,0.0,39,0.00,CLR,,0.01,WeatherDisplay:10.37,2013-02-23 21:20:00,
2013-02-23 16:22:00,50.3,26.3,29.87,NNE,14,0.0,0.0,39,0.00,CLR,,0.01,WeatherDisplay:10.37,2013-02-23 21:22:00,
2013-02-23 16:23:00,50.2,26.2,29.87,NNE,14,0.0,0.0,39,0.00,CLR,,0.01,WeatherDisplay:10.37,2013-02-23 21:23:00,
2013-02-23 16:24:00,50.5,27.0,29.87,NNE,14,0.0,0.0,40,0.00,CLR,,0.01,WeatherDisplay:10.37,2013-02-23 21:24:00,
2013-02-23 16:26:00,50.0,26.0,29.87,NNE,14,0.0,0.0,39,0.00,CLR,,0.01,WeatherDisplay:10.37,2013-02-23 21:26:00,
2013-02-23 16:28:00,50.3,26.3,29.87,NNE,14,0.0,0.0,39,0.00,CLR,,0.01,WeatherDisplay:10.37,2013-02-23 21:28:00,
2013-02-23 16:29:00,50.1,26.1,29.87,NNE,14,0.0,0.0,39,0.00,CLR,,0.01,WeatherDisplay:10.37,2013-02-23 21:29:00,
2013-02-23 16:31:00,50.3,26.3,29.87,NNE,14,0.0,0.0,39,0.00,CLR,,0.01,WeatherDisplay:10.37,2013-02-23 21:31:00,
2013-02-23 16:33:00,50.7,26.0,29.87,NNE,14,0.0,0.0,38,0.00,CLR,,0.01,WeatherDisplay:10.37,2013-02-23 21:33:00,
2013-02-23 16:34:00,50.3,25.6,29.87,NNE,14,0.0,0.0,38,0.00,CLR,,0.01,WeatherDisplay:10.37,2013-02-23 21:34:00,
2013-02-23 16:36:00,50.3,25.6,29.87,NNE,14,0.0,0.0,38,0.00,CLR,,0.01,WeatherDisplay:10.37,2013-02-23 21:36:00,
2013-02-23 16:38:00,50.9,26.2,29.87,NNE,14,0.0,0.0,38,0.00,CLR,,0.01,WeatherDisplay:10.37,2013-02-23 21:38:00,
2013-02-23 16:39:00,50.6,26.5,29.87,NNE,14,0.0,0.0,39,0.00,CLR,,0.01,WeatherDisplay:10.37,2013-02-23 21:39:00,
2013-02-23 16:41:00,51.6,26.8,29.87,NNE,14,0.0,0.0,38,0.00,CLR,,0.01,WeatherDisplay:10.37,2013-02-23 21:41:00,
2013-02-23 16:43:00,50.5,25.2,29.87,NNE,14,0.0,0.0,37,0.00,CLR,,0.01,WeatherDisplay:10.37,2013-02-23 21:43:00,
2013-02-23 16:44:00,51.2,25.1,29.87,NNE,14,0.0,0.0,36,0.00,CLR,,0.01,WeatherDisplay:10.37,2013-02-23 21:44:00,
2013-02-23 16:46:00,50.8,25.4,29.87,NNE,14,0.0,0.0,37,0.00,CLR,,0.01,WeatherDisplay:10.37,2013-02-23 21:46:00,
2013-02-23 16:49:00,51.7,25.6,29.87,NNE,14,0.0,0.0,36,0.00,CLR,,0.01,WeatherDisplay:10.37,2013-02-23 21:49:00,
2013-02-23 16:50:00,51.8,25.7,29.87,NNE,14,0.0,0.0,36,0.00,CLR,,0.01,WeatherDisplay:10.37,2013-02-23 21:50:00,
2013-02-23 16:51:00,51.2,25.1,29.87,NNE,14,0.0,0.0,36,0.00,CLR,,0.01,WeatherDisplay:10.37,2013-02-23 21:51:00,
2013-02-23 16:54:00,51.9,25.1,29.87,NNE,14,0.0,0.0,35,0.00,CLR,,0.01,WeatherDisplay:10.37,2013-02-23 21:54:00,
2013-02-23 16:55:00,51.8,25.0,29.87,NNE,14,0.0,0.0,35,0.00,CLR,,0.01,WeatherDisplay:10.37,2013-02-23 21:55:00,
2013-02-23 16:56:00,51.7,24.9,29.87,NNE,14,0.0,0.0,35,0.00,CLR,,0.01,WeatherDisplay:10.37,2013-02-23 21:56:00,
2013-02-23 16:59:00,51.0,24.3,29.87,NNE,14,0.0,0.0,35,0.00,CLR,,0.01,WeatherDisplay:10.37,2013-02-23 21:59:00,
2013-02-23 17:00:00,51.8,25.0,29.87,NNE,14,0.0,0.0,35,0.00,CLR,,0.01,WeatherDisplay:10.37,2013-02-23 22:00:00,
2013-02-23 17:02:00,51.2,25.1,29.87,NNE,14,0.0,0.0,36,0.00,CLR,,0.01,WeatherDisplay:10.37,2013-02-23 22:02:00,
2013-02-23 17:05:00,51.6,25.5,29.87,NNE,14,0.0,0.0,36,0.00,CLR,,0.01,WeatherDisplay:10.37,2013-02-23 22:05:00,
2013-02-23 17:07:00,51.1,25.0,29.88,NNE,14,0.0,0.0,36,0.00,CLR,,0.01,WeatherDisplay:10.37,2013-02-23 22:07:00,
2013-02-23 17:10:00,51.0,25.6,29.87,NNE,14,0.0,0.0,37,0.00,CLR,,0.01,WeatherDisplay:10.37,2013-02-23 22:10:00,
2013-02-23 17:11:00,50.9,24.9,29.87,NNE,14,0.0,0.0,36,0.00,CLR,,0.01,WeatherDisplay:10.37,2013-02-23 22:11:00,
2013-02-23 17:12:00,51.0,25.0,29.87,NNE,14,0.0,0.0,36,0.00,CLR,,0.01,WeatherDisplay:10.37,2013-02-23 22:12:00,
2013-02-23 17:15:00,51.1,25.7,29.87,NNE,14,0.0,0.0,37,0.00,CLR,,0.01,WeatherDisplay:10.37,2013-02-23 22:15:00,
2013-02-23 17:16:00,51.8,26.3,29.87,NNE,14,0.0,0.0,37,0.00,CLR,,0.01,WeatherDisplay:10.37,2013-02-23 22:16:00,
2013-02-23 17:17:00,51.0,25.6,29.87,NNE,14,0.0,0.0,37,0.00,CLR,,0.01,WeatherDisplay:10.37,2013-02-23 22:17:00,
2013-02-23 17:20:00,51.3,25.2,29.87,NNE,14,0.0,0.0,36,0.00,CLR,,0.01,WeatherDisplay:10.37,2013-02-23 22:20:00,
2013-02-23 17:21:00,51.7,24.9,29.87,NNE,14,0.0,0.0,35,0.00,CLR,,0.01,WeatherDisplay:10.37,2013-02-23 22:21:00,
2013-02-23 17:22:00,50.8,24.1,29.87,NNE,14,0.0,0.0,35,0.00,CLR,,0.01,WeatherDisplay:10.37,2013-02-23 22:22:00,
2013-02-23 17:25:00,51.3,24.5,29.87,NNE,14,0.0,0.0,35,0.00,CLR,,0.01,WeatherDisplay:10.37,2013-02-23 22:25:00,
2013-02-23 17:26:00,50.7,24.0,29.87,NNE,14,0.0,0.0,35,0.00,CLR,,0.01,WeatherDisplay:10.37,2013-02-23 22:26:00,
2013-02-23 17:27:00,51.9,25.1,29.87,NNE,14,0.0,0.0,35,0.00,CLR,,0.01,WeatherDisplay:10.37,2013-02-23 22:27:00,
2013-02-23 17:30:00,50.8,24.8,29.87,NNE,14,0.0,0.0,36,0.00,CLR,,0.01,WeatherDisplay:10.37,2013-02-23 22:30:00,
2013-02-23 17:31:00,51.3,25.2,29.86,NNE,14,0.0,0.0,36,0.00,CLR,,0.01,WeatherDisplay:10.37,2013-02-23 22:31:00,
2013-02-23 17:32:00,50.8,24.8,29.86,NNE,14,0.0,0.0,36,0.00,CLR,,0.01,WeatherDisplay:10.37,2013-02-23 22:32:00,
2013-02-23 17:35:00,50.9,25.5,29.86,NNE,14,0.0,0.0,37,0.00,CLR,,0.01,WeatherDisplay:10.37,2013-02-23 22:35:00,
2013-02-23 17:36:00,50.6,25.3,29.86,NNE,14,0.0,0.0,37,0.00,CLR,,0.01,WeatherDisplay:10.37,2013-02-23 22:36:00,
2013-02-23 17:37:00,50.3,25.0,29.86,NNE,14,0.0,0.0,37,0.00,CLR,,0.01,WeatherDisplay:10.37,2013-02-23 22:37:00,
2013-02-23 17:41:00,50.6,25.9,29.86,NNE,14,0.0,0.0,38,0.00,CLR,,0.01,WeatherDisplay:10.37,2013-02-23 22:41:00,
2013-02-23 17:42:00,50.2,25.5,29.85,NNE,14,0.0,0.0,38,0.00,CLR,,0.01,WeatherDisplay:10.37,2013-02-23 22:42:00,
2013-02-23 17:46:00,50.3,26.3,29.85,NNE,14,0.0,0.0,39,0.00,CLR,,0.01,WeatherDisplay:10.37,2013-02-23 22:46:00,
2013-02-23 17:47:00,50.2,26.2,29.85,NNE,14,0.0,0.0,39,0.00,CLR,,0.01,WeatherDisplay:10.37,2013-02-23 22:47:00,
2013-02-23 17:51:00,50.1,26.7,29.86,NNE,14,0.0,0.0,40,0.00,CLR,,0.01,WeatherDisplay:10.37,2013-02-23 22:51:00,
2013-02-23 17:52:00,49.8,27.0,29.86,NNE,14,0.0,0.0,41,0.00,CLR,,0.01,WeatherDisplay:10.37,2013-02-23 22:52:00,
2013-02-23 17:56:00,50.0,28.4,29.85,NNE,14,0.0,0.0,43,0.00,CLR,,0.01,WeatherDisplay:10.37,2013-02-23 22:56:00,
2013-02-23 17:57:00,49.6,28.0,29.85,NNE,14,0.0,0.0,43,0.00,CLR,,0.01,WeatherDisplay:10.37,2013-02-23 22:57:00,
2013-02-23 18:01:00,49.1,28.1,29.85,NNE,14,0.0,0.0,44,0.00,CLR,,0.01,WeatherDisplay:10.37,2013-02-23 23:01:00,
2013-02-23 18:02:00,48.8,27.8,29.85,NNE,14,0.0,0.0,44,0.00,CLR,,0.01,WeatherDisplay:10.37,2013-02-23 23:02:00,
2013-02-23 18:06:00,48.6,28.7,29.85,NNE,14,0.0,0.0,46,0.00,CLR,,0.01,WeatherDisplay:10.37,2013-02-23 23:06:00,
2013-02-23 18:07:00,48.6,29.3,29.85,NNE,14,0.0,0.0,47,0.00,CLR,,0.01,WeatherDisplay:10.37,2013-02-23 23:07:00,
2013-02-23 18:08:00,48.5,29.7,29.85,NNE,14,0.0,0.0,48,0.00,CLR,,0.01,WeatherDisplay:10.37,2013-02-23 23:08:00,
2013-02-23 18:11:00,48.5,30.2,29.85,NNE,14,0.0,0.0,49,0.00,CLR,,0.01,WeatherDisplay:10.37,2013-02-23 23:11:00,
2013-02-23 18:12:00,48.5,30.2,29.85,NNE,14,0.0,0.0,49,0.00,CLR,,0.01,WeatherDisplay:10.37,2013-02-23 23:12:00,
2013-02-23 18:13:00,48.5,30.2,29.85,NNE,14,0.0,0.0,49,0.00,CLR,,0.01,WeatherDisplay:10.37,2013-02-23 23:13:00,
2013-02-23 18:16:00,48.5,30.7,29.85,NNE,14,0.0,0.0,50,0.00,CLR,,0.01,WeatherDisplay:10.37,2013-02-23 23:16:00,
2013-02-23 18:17:00,48.5,30.7,29.85,NNE,14,0.0,0.0,50,0.00,CLR,,0.01,WeatherDisplay:10.37,2013-02-23 23:17:00,
2013-02-23 18:18:00,48.5,31.2,29.85,NNE,14,0.0,0.0,51,0.00,CLR,,0.01,WeatherDisplay:10.37,2013-02-23 23:18:00,
2013-02-23 18:21:00,48.5,31.7,29.85,NNE,14,0.0,0.0,52,0.00,CLR,,0.01,WeatherDisplay:10.37,2013-02-23 23:21:00,
2013-02-23 18:22:00,48.5,31.7,29.84,NNE,14,0.0,0.0,52,0.00,CLR,,0.01,WeatherDisplay:10.37,2013-02-23 23:22:00,
2013-02-23 18:23:00,48.5,31.7,29.84,NNE,14,0.0,0.0,52,0.00,CLR,,0.01,WeatherDisplay:10.37,2013-02-23 23:23:00,
2013-02-23 18:26:00,48.5,32.1,29.84,NNE,14,0.0,0.0,53,0.00,CLR,,0.01,WeatherDisplay:10.37,2013-02-23 23:26:00,
2013-02-23 18:27:00,48.2,31.9,29.84,NNE,14,0.0,0.0,53,0.00,CLR,,0.01,WeatherDisplay:10.37,2013-02-23 23:27:00,
2013-02-23 18:28:00,48.5,32.1,29.84,NNE,14,0.0,0.0,53,0.00,CLR,,0.01,WeatherDisplay:10.37,2013-02-23 23:28:00,
2013-02-23 18:32:00,48.4,33.0,29.85,NNE,14,0.0,0.0,55,0.00,CLR,,0.01,WeatherDisplay:10.37,2013-02-23 23:32:00,
2013-02-23 18:34:00,48.4,32.5,29.85,NNE,14,0.0,0.0,54,0.00,CLR,,0.01,WeatherDisplay:10.37,2013-02-23 23:34:00,
2013-02-23 18:37:00,48.4,33.0,29.85,NNE,14,0.0,0.0,55,0.00,CLR,,0.01,WeatherDisplay:10.37,2013-02-23 23:37:00,
2013-02-23 18:39:00,48.2,32.8,29.85,NNE,14,0.0,0.0,55,0.00,CLR,,0.01,WeatherDisplay:10.37,2013-02-23 23:39:00,
2013-02-23 18:42:00,48.4,33.0,29.85,NNE,14,0.0,0.0,55,0.00,CLR,,0.01,WeatherDisplay:10.37,2013-02-23 23:42:00,
2013-02-23 18:44:00,48.2,33.2,29.85,NNE,14,0.0,0.0,56,0.00,CLR,,0.01,WeatherDisplay:10.37,2013-02-23 23:44:00,
2013-02-23 18:47:00,48.2,33.2,29.85,NNE,14,0.0,0.0,56,0.00,CLR,,0.01,WeatherDisplay:10.37,2013-02-23 23:47:00,
2013-02-23 18:48:00,47.8,32.9,29.85,NNE,14,0.0,0.0,56,0.00,CLR,,0.01,WeatherDisplay:10.37,2013-02-23 23:48:00,
2013-02-23 18:49:00,48.2,33.2,29.85,NNE,14,0.0,0.0,56,0.00,CLR,,0.01,WeatherDisplay:10.37,2013-02-23 23:49:00,
2013-02-23 18:52:00,48.1,33.1,29.84,NNE,14,0.0,0.0,56,0.00,CLR,,0.01,WeatherDisplay:10.37,2013-02-23 23:52:00,
2013-02-23 18:53:00,47.9,32.9,29.84,NNE,14,0.0,0.0,56,0.00,CLR,,0.01,WeatherDisplay:10.37,2013-02-23 23:53:00,
2013-02-23 18:54:00,47.9,33.4,29.84,NNE,14,0.0,0.0,57,0.00,CLR,,0.01,WeatherDisplay:10.37,2013-02-23 23:54:00,
2013-02-23 18:57:00,47.9,33.4,29.84,NNE,14,0.0,0.0,57,0.00,CLR,,0.01,WeatherDisplay:10.37,2013-02-23 23:57:00,
2013-02-23 18:58:00,47.8,33.7,29.84,NNE,14,0.0,0.0,58,0.00,CLR,,0.01,WeatherDisplay:10.37,2013-02-23 23:58:00,
2013-02-23 19:00:00,48.1,33.6,29.84,NNE,14,0.0,0.0,57,0.00,CLR,,0.01,WeatherDisplay:10.37,2013-02-24 00:00:00,
2013-02-23 19:02:00,47.9,33.4,29.84,NNE,14,0.0,0.0,57,0.00,CLR,,0.01,WeatherDisplay:10.37,2013-02-24 00:02:00,
2013-02-23 19:03:00,48.2,34.1,29.84,NNE,14,0.0,0.0,58,0.00,CLR,,0.01,WeatherDisplay:10.37,2013-02-24 00:03:00,
2013-02-23 19:05:00,47.9,33.8,29.83,NNE,14,0.0,0.0,58,0.00,CLR,,0.01,WeatherDisplay:10.37,2013-02-24 00:05:00,
2013-02-23 19:07:00,47.9,33.8,29.84,NNE,14,0.0,0.0,58,0.00,CLR,,0.01,WeatherDisplay:10.37,2013-02-24 00:07:00,
2013-02-23 19:08:00,47.6,33.5,29.84,NNE,14,0.0,0.0,58,0.00,CLR,,0.01,WeatherDisplay:10.37,2013-02-24 00:08:00,
2013-02-23 19:09:00,47.8,34.2,29.84,NNE,14,0.0,0.0,59,0.00,CLR,,0.01,WeatherDisplay:10.37,2013-02-24 00:09:00,
2013-02-23 19:10:00,47.6,34.0,29.84,NNE,14,0.0,0.0,59,0.00,CLR,,0.01,WeatherDisplay:10.37,2013-02-24 00:10:00,
2013-02-23 19:12:00,47.4,33.8,29.84,NNE,14,0.0,0.0,59,0.00,CLR,,0.01,WeatherDisplay:10.37,2013-02-24 00:12:00,
2013-02-23 19:13:00,47.5,33.9,29.84,NNE,14,0.0,0.0,59,0.00,CLR,,0.01,WeatherDisplay:10.37,2013-02-24 00:13:00,
2013-02-23 19:14:00,47.3,34.1,29.83,NNE,14,0.0,0.0,60,0.00,CLR,,0.01,WeatherDisplay:10.37,2013-02-24 00:14:00,
2013-02-23 19:15:00,47.4,33.8,29.84,NNE,14,0.0,0.0,59,0.00,CLR,,0.01,WeatherDisplay:10.37,2013-02-24 00:15:00,
2013-02-23 19:17:00,47.3,33.7,29.84,NNE,14,0.0,0.0,59,0.00,CLR,,0.01,WeatherDisplay:10.37,2013-02-24 00:17:00,
2013-02-23 19:18:00,47.3,33.7,29.84,NNE,14,0.0,0.0,59,0.00,CLR,,0.01,WeatherDisplay:10.37,2013-02-24 00:18:00,
2013-02-23 19:19:00,47.2,34.0,29.84,NNE,14,0.0,0.0,60,0.00,CLR,,0.01,WeatherDisplay:10.37,2013-02-24 00:19:00,
2013-02-23 19:20:00,47.0,34.2,29.84,NNE,14,0.0,0.0,61,0.00,CLR,,0.01,WeatherDisplay:10.37,2013-02-24 00:20:00,
2013-02-23 19:22:00,46.9,34.1,29.83,NNE,14,0.0,0.0,61,0.00,CLR,,0.01,WeatherDisplay:10.37,2013-02-24 00:22:00,
2013-02-23 19:23:00,46.8,34.0,29.84,NNE,14,0.0,0.0,61,0.00,CLR,,0.01,WeatherDisplay:10.37,2013-02-24 00:23:00,
2013-02-23 19:24:00,46.8,34.0,29.84,NNE,14,0.0,0.0,61,0.00,CLR,,0.01,WeatherDisplay:10.37,2013-02-24 00:24:00,
2013-02-23 19:25:00,46.7,34.4,29.84,NNE,14,0.0,0.0,62,0.00,CLR,,0.01,WeatherDisplay:10.37,2013-02-24 00:25:00,
2013-02-23 19:27:00,46.4,34.5,29.83,NNE,14,0.0,0.0,63,0.00,CLR,,0.01,WeatherDisplay:10.37,2013-02-24 00:27:00,
2013-02-23 19:28:00,46.7,35.2,29.83,NNE,14,0.0,0.0,64,0.00,CLR,,0.01,WeatherDisplay:10.37,2013-02-24 00:28:00,
2013-02-23 19:29:00,46.3,35.6,29.83,NNE,14,0.0,0.0,66,0.00,CLR,,0.01,WeatherDisplay:10.37,2013-02-24 00:29:00,
2013-02-23 19:30:00,46.3,35.6,29.83,NNE,14,0.0,0.0,66,0.00,CLR,,0.01,WeatherDisplay:10.37,2013-02-24 00:30:00,
2013-02-23 19:33:00,46.7,36.3,29.83,NNE,14,0.0,0.0,67,0.00,CLR,,0.01,WeatherDisplay:10.37,2013-02-24 00:33:00,
2013-02-23 19:34:00,46.4,36.0,29.83,NNE,14,0.0,0.0,67,0.00,CLR,,0.01,WeatherDisplay:10.37,2013-02-24 00:34:00,
2013-02-23 19:35:00,46.4,35.7,29.83,NNE,14,0.0,0.0,66,0.00,CLR,,0.01,WeatherDisplay:10.37,2013-02-24 00:35:00,
2013-02-23 19:38:00,46.2,35.8,29.83,NNE,14,0.0,0.0,67,0.00,CLR,,0.01,WeatherDisplay:10.37,2013-02-24 00:38:00,
2013-02-23 19:40:00,46.3,36.3,29.83,NNE,14,0.0,0.0,68,0.00,CLR,,0.01,WeatherDisplay:10.37,2013-02-24 00:40:00,
2013-02-23 19:41:00,46.5,36.1,29.83,NNE,14,0.0,0.0,67,0.00,CLR,,0.01,WeatherDisplay:10.37,2013-02-24 00:41:00,
2013-02-23 19:43:00,45.8,35.5,29.83,NNE,14,0.0,0.0,67,0.00,CLR,,0.01,WeatherDisplay:10.37,2013-02-24 00:43:00,
2013-02-23 19:44:00,46.2,36.2,29.83,NNE,14,0.0,0.0,68,0.00,CLR,,0.01,WeatherDisplay:10.37,2013-02-24 00:44:00,
2013-02-23 19:45:00,45.9,35.9,29.83,NNE,14,0.0,0.0,68,0.00,CLR,,0.01,WeatherDisplay:10.37,2013-02-24 00:45:00,
2013-02-23 19:47:00,46.1,36.5,29.83,NNE,14,0.0,0.0,69,0.00,CLR,,0.01,WeatherDisplay:10.37,2013-02-24 00:47:00,
2013-02-23 19:48:00,46.1,36.9,29.83,NNE,14,0.0,0.0,70,0.00,CLR,,0.01,WeatherDisplay:10.37,2013-02-24 00:48:00,
2013-02-23 19:49:00,45.6,36.4,29.83,NNE,14,0.0,0.0,70,0.00,CLR,,0.01,WeatherDisplay:10.37,2013-02-24 00:49:00,
2013-02-23 19:50:00,46.0,36.8,29.83,NNE,14,0.0,0.0,70,0.00,CLR,,0.01,WeatherDisplay:10.37,2013-02-24 00:50:00,
2013-02-23 19:52:00,46.0,36.8,29.83,NNE,14,0.0,0.0,70,0.00,CLR,,0.01,WeatherDisplay:10.37,2013-02-24 00:52:00,
2013-02-23 19:53:00,45.8,36.6,29.83,NNE,14,0.0,0.0,70,0.00,CLR,,0.01,WeatherDisplay:10.37,2013-02-24 00:53:00,
2013-02-23 19:54:00,45.9,36.7,29.83,NNE,14,0.0,0.0,70,0.00,CLR,,0.01,WeatherDisplay:10.37,2013-02-24 00:54:00,
2013-02-23 19:55:00,45.8,36.6,29.83,NNE,14,0.0,0.0,70,0.00,CLR,,0.01,WeatherDisplay:10.37,2013-02-24 00:55:00,
2013-02-23 19:57:00,45.6,36.4,29.83,NNE,14,0.0,0.0,70,0.00,CLR,,0.01,WeatherDisplay:10.37,2013-02-24 00:57:00,
2013-02-23 19:58:00,45.7,36.5,29.83,NNE,14,0.0,0.0,70,0.00,CLR,,0.01,WeatherDisplay:10.37,2013-02-24 00:58:00,
2013-02-23 19:59:00,45.6,36.4,29.83,NNE,14,0.0,0.0,70,0.00,CLR,,0.01,WeatherDisplay:10.37,2013-02-24 00:59:00,
2013-02-23 20:00:00,45.4,36.2,29.83,NNE,14,0.0,0.0,70,0.00,CLR,,0.01,WeatherDisplay:10.37,2013-02-24 01:00:00,
2013-02-23 20:02:00,45.8,37.3,29.83,NNE,14,0.0,0.0,72,0.00,CLR,,0.01,WeatherDisplay:10.37,2013-02-24 01:02:00,
2013-02-23 20:03:00,45.4,36.9,29.83,NNE,14,0.0,0.0,72,0.00,CLR,,0.01,WeatherDisplay:10.37,2013-02-24 01:03:00,
2013-02-23 20:04:00,45.4,36.9,29.83,NNE,14,0.0,0.0,72,0.00,CLR,,0.01,WeatherDisplay:10.37,2013-02-24 01:04:00,
2013-02-23 20:05:00,45.5,37.0,29.83,NNE,14,0.0,0.0,72,0.00,CLR,,0.01,WeatherDisplay:10.37,2013-02-24 01:05:00,
2013-02-23 20:07:00,45.4,36.9,29.83,NNE,14,0.0,0.0,72,0.00,CLR,,0.01,WeatherDisplay:10.37,2013-02-24 01:07:00,
2013-02-23 20:08:00,45.5,37.3,29.83,NNE,14,0.0,0.0,73,0.00,CLR,,0.01,WeatherDisplay:10.37,2013-02-24 01:08:00,
2013-02-23 20:09:00,45.3,37.5,29.83,NNE,14,0.0,0.0,74,0.00,CLR,,0.01,WeatherDisplay:10.37,2013-02-24 01:09:00,
2013-02-23 20:10:00,45.3,37.8,29.83,NNE,14,0.0,0.0,75,0.00,CLR,,0.01,WeatherDisplay:10.37,2013-02-24 01:10:00,
2013-02-23 20:12:00,45.5,38.0,29.83,NNE,14,0.0,0.0,75,0.00,CLR,,0.01,WeatherDisplay:10.37,2013-02-24 01:12:00,
2013-02-23 20:14:00,45.3,37.8,29.83,NNE,14,0.0,0.0,75,0.00,CLR,,0.01,WeatherDisplay:10.37,2013-02-24 01:14:00,
2013-02-23 20:15:00,45.4,37.6,29.83,NNE,14,0.0,0.0,74,0.00,CLR,,0.01,WeatherDisplay:10.37,2013-02-24 01:15:00,
2013-02-23 20:18:00,45.7,37.9,29.83,NNE,14,0.0,0.0,74,0.00,CLR,,0.01,WeatherDisplay:10.37,2013-02-24 01:18:00,
2013-02-23 20:19:00,45.1,37.3,29.83,NNE,14,0.0,0.0,74,0.00,CLR,,0.01,WeatherDisplay:10.37,2013-02-24 01:19:00,
2013-02-23 20:21:00,45.4,37.6,29.83,NNE,14,0.0,0.0,74,0.00,CLR,,0.01,WeatherDisplay:10.37,2013-02-24 01:21:00,
2013-02-23 20:23:00,45.3,37.5,29.83,NNE,14,0.0,0.0,74,0.00,CLR,,0.01,WeatherDisplay:10.37,2013-02-24 01:23:00,
2013-02-23 20:24:00,45.2,37.4,29.83,NNE,14,0.0,0.0,74,0.00,CLR,,0.01,WeatherDisplay:10.37,2013-02-24 01:24:00,
2013-02-23 20:26:00,45.0,37.6,29.83,NNE,14,0.0,0.0,75,0.00,CLR,,0.01,WeatherDisplay:10.37,2013-02-24 01:26:00,
2013-02-23 20:28:00,45.2,37.7,29.83,NNE,14,0.0,0.0,75,0.00,CLR,,0.01,WeatherDisplay:10.37,2013-02-24 01:28:00,
2013-02-23 20:29:00,45.3,37.8,29.82,NNE,14,0.0,0.0,75,0.00,CLR,,0.01,WeatherDisplay:10.37,2013-02-24 01:29:00,
2013-02-23 20:30:00,45.5,38.0,29.82,NNE,14,0.0,0.0,75,0.00,CLR,,0.01,WeatherDisplay:10.37,2013-02-24 01:30:00,
2013-02-23 20:31:00,45.4,37.9,29.82,NNE,14,0.0,0.0,75,0.00,CLR,,0.01,WeatherDisplay:10.37,2013-02-24 01:31:00,
2013-02-23 20:33:00,45.1,37.6,29.82,NNE,14,0.0,0.0,75,0.00,CLR,,0.01,WeatherDisplay:10.37,2013-02-24 01:33:00,
2013-02-23 20:34:00,44.9,37.5,29.82,NNE,14,0.0,0.0,75,0.00,CLR,,0.01,WeatherDisplay:10.37,2013-02-24 01:34:00,
2013-02-23 20:35:00,44.8,37.4,29.82,NNE,14,0.0,0.0,75,0.00,CLR,,0.01,WeatherDisplay:10.37,2013-02-24 01:35:00,
2013-02-23 20:36:00,44.9,37.5,29.82,NNE,14,0.0,0.0,75,0.00,CLR,,0.01,WeatherDisplay:10.37,2013-02-24 01:36:00,
2013-02-23 20:38:00,45.1,37.6,29.82,NNE,14,0.0,0.0,75,0.00,CLR,,0.01,WeatherDisplay:10.37,2013-02-24 01:38:00,
2013-02-23 20:39:00,44.8,37.4,29.82,NNE,14,0.0,0.0,75,0.00,CLR,,0.01,WeatherDisplay:10.37,2013-02-24 01:39:00,
2013-02-23 20:40:00,44.8,37.4,29.82,NNE,14,0.0,0.0,75,0.00,CLR,,0.01,WeatherDisplay:10.37,2013-02-24 01:40:00,
2013-02-23 20:41:00,44.7,37.3,29.82,NNE,14,0.0,0.0,75,0.00,CLR,,0.01,WeatherDisplay:10.37,2013-02-24 01:41:00,
2013-02-23 20:43:00,44.7,37.3,29.82,NNE,14,0.0,0.0,75,0.00,CLR,,0.01,WeatherDisplay:10.37,2013-02-24 01:43:00,
2013-02-23 20:44:00,44.7,37.3,29.82,NNE,14,0.0,0.0,75,0.00,CLR,,0.01,WeatherDisplay:10.37,2013-02-24 01:44:00,
2013-02-23 20:45:00,44.7,37.3,29.82,NNE,14,0.0,0.0,75,0.00,CLR,,0.01,WeatherDisplay:10.37,2013-02-24 01:45:00,
2013-02-23 20:46:00,44.5,37.1,29.82,NNE,14,0.0,0.0,75,0.00,CLR,,0.01,WeatherDisplay:10.37,2013-02-24 01:46:00,
2013-02-23 20:48:00,44.4,37.3,29.82,NNE,14,0.0,0.0,76,0.00,CLR,,0.01,WeatherDisplay:10.37,2013-02-24 01:48:00,
2013-02-23 20:49:00,44.4,37.6,29.82,NNE,14,0.0,0.0,77,0.00,CLR,,0.01,WeatherDisplay:10.37,2013-02-24 01:49:00,
2013-02-23 20:50:00,44.4,38.0,29.82,NNE,14,0.0,0.0,78,0.00,CLR,,0.01,WeatherDisplay:10.37,2013-02-24 01:50:00,
2013-02-23 20:51:00,44.7,38.6,29.82,NNE,14,0.0,0.0,79,0.00,CLR,,0.01,WeatherDisplay:10.37,2013-02-24 01:51:00,
2013-02-23 20:53:00,44.6,39.1,29.82,NNE,14,0.0,0.0,81,0.00,CLR,,0.01,WeatherDisplay:10.37,2013-02-24 01:53:00,
2013-02-23 20:54:00,44.6,39.1,29.82,NNE,14,0.0,0.0,81,0.00,CLR,,0.01,WeatherDisplay:10.37,2013-02-24 01:54:00,
2013-02-23 20:55:00,45.0,39.5,29.82,NNE,14,0.0,0.0,81,0.00,CLR,,0.01,WeatherDisplay:10.37,2013-02-24 01:55:00,
2013-02-23 20:56:00,44.8,39.3,29.82,NNE,14,0.0,0.0,81,0.00,CLR,,0.01,WeatherDisplay:10.37,2013-02-24 01:56:00,
2013-02-23 20:58:00,44.8,39.3,29.82,NNE,14,0.0,0.0,81,0.00,CLR,,0.01,WeatherDisplay:10.37,2013-02-24 01:58:00,
2013-02-23 20:59:00,45.0,39.2,29.82,NNE,14,0.0,0.0,80,0.00,CLR,,0.01,WeatherDisplay:10.37,2013-02-24 01:59:00,
2013-02-23 21:00:00,45.0,38.9,29.82,NNE,14,0.0,0.0,79,0.00,CLR,,0.01,WeatherDisplay:10.37,2013-02-24 02:00:00,
2013-02-23 21:01:00,44.8,38.7,29.82,NNE,14,0.0,0.0,79,0.00,CLR,,0.01,WeatherDisplay:10.37,2013-02-24 02:01:00,
2013-02-23 21:03:00,44.9,38.5,29.82,NNE,14,0.0,0.0,78,0.00,CLR,,0.01,WeatherDisplay:10.37,2013-02-24 02:03:00,
2013-02-23 21:04:00,45.1,38.6,29.82,NNE,14,0.0,0.0,78,0.00,CLR,,0.01,WeatherDisplay:10.37,2013-02-24 02:04:00,
2013-02-23 21:05:00,45.2,38.4,29.82,NNE,14,0.0,0.0,77,0.00,CLR,,0.01,WeatherDisplay:10.37,2013-02-24 02:05:00,
2013-02-23 21:06:00,45.1,38.3,29.82,NNE,14,0.0,0.0,77,0.00,CLR,,0.01,WeatherDisplay:10.37,2013-02-24 02:06:00,
2013-02-23 21:09:00,45.2,38.4,29.82,NNE,14,0.0,0.0,77,0.00,CLR,,0.01,WeatherDisplay:10.37,2013-02-24 02:09:00,
2013-02-23 21:10:00,45.1,38.0,29.82,NNE,14,0.0,0.0,76,0.00,CLR,,0.01,WeatherDisplay:10.37,2013-02-24 02:10:00,
2013-02-23 21:11:00,45.0,37.9,29.82,NNE,14,0.0,0.0,76,0.00,CLR,,0.01,WeatherDisplay:10.37,2013-02-24 02:11:00,
2013-02-23 21:14:00,44.9,37.5,29.82,NNE,14,0.0,0.0,75,0.00,CLR,,0.01,WeatherDisplay:10.37,2013-02-24 02:14:00,
2013-02-23 21:15:00,44.8,37.4,29.82,NNE,14,0.0,0.0,75,0.00,CLR,,0.01,WeatherDisplay:10.37,2013-02-24 02:15:00,
2013-02-23 21:16:00,44.6,37.2,29.82,NNE,14,0.0,0.0,75,0.00,CLR,,0.01,WeatherDisplay:10.37,2013-02-24 02:16:00,
2013-02-23 21:18:00,44.1,37.0,29.81,NNE,14,0.0,0.0,76,0.00,CLR,,0.01,WeatherDisplay:10.37,2013-02-24 02:18:00,
2013-02-23 21:20:00,44.3,37.2,29.81,NNE,14,0.0,0.0,76,0.00,CLR,,0.01,WeatherDisplay:10.37,2013-02-24 02:20:00,
2013-02-23 21:21:00,44.1,37.3,29.81,NNE,14,0.0,0.0,77,0.00,CLR,,0.01,WeatherDisplay:10.37,2013-02-24 02:21:00,
2013-02-23 21:22:00,44.2,37.4,29.82,NNE,14,0.0,0.0,77,0.00,CLR,,0.01,WeatherDisplay:10.37,2013-02-24 02:22:00,
2013-02-23 21:24:00,44.0,37.6,29.82,NNE,14,0.0,0.0,78,0.00,CLR,,0.01,WeatherDisplay:10.37,2013-02-24 02:24:00,
2013-02-23 21:25:00,43.9,38.1,29.81,NNE,14,0.0,0.0,80,0.00,CLR,,0.01,WeatherDisplay:10.37,2013-02-24 02:25:00,
2013-02-23 21:26:00,43.6,38.2,29.81,NNE,14,0.0,0.0,81,0.00,CLR,,0.01,WeatherDisplay:10.37,2013-02-24 02:26:00,
2013-02-23 21:27:00,43.4,38.0,29.81,NNE,14,0.0,0.0,81,0.00,CLR,,0.01,WeatherDisplay:10.37,2013-02-24 02:27:00,
2013-02-23 21:29:00,43.8,38.7,29.81,NNE,14,0.0,0.0,82,0.00,CLR,,0.01,WeatherDisplay:10.37,2013-02-24 02:29:00,
2013-02-23 21:30:00,43.4,38.6,29.81,NNE,14,0.0,0.0,83,0.00,CLR,,0.01,WeatherDisplay:10.37,2013-02-24 02:30:00,
2013-02-23 21:31:00,43.3,38.8,29.81,NNE,14,0.0,0.0,84,0.00,CLR,,0.01,WeatherDisplay:10.37,2013-02-24 02:31:00,
2013-02-23 21:32:00,43.6,39.1,29.81,NNE,14,0.0,0.0,84,0.00,CLR,,0.01,WeatherDisplay:10.37,2013-02-24 02:32:00,
2013-02-23 21:34:00,43.6,39.1,29.81,NNE,14,0.0,0.0,84,0.00,CLR,,0.01,WeatherDisplay:10.37,2013-02-24 02:34:00,
2013-02-23 21:35:00,43.5,39.0,29.81,NNE,14,0.0,0.0,84,0.00,CLR,,0.01,WeatherDisplay:10.37,2013-02-24 02:35:00,
2013-02-23 21:36:00,43.5,39.0,29.81,NNE,14,0.0,0.0,84,0.00,CLR,,0.01,WeatherDisplay:10.37,2013-02-24 02:36:00,
2013-02-23 21:37:00,43.5,39.0,29.82,NNE,14,0.0,0.0,84,0.00,CLR,,0.01,WeatherDisplay:10.37,2013-02-24 02:37:00,
2013-02-23 21:39:00,43.1,38.3,29.81,NNE,14,0.0,0.0,83,0.00,CLR,,0.01,WeatherDisplay:10.37,2013-02-24 02:39:00,
2013-02-23 21:40:00,43.3,38.5,29.81,NNE,14,0.0,0.0,83,0.00,CLR,,0.01,WeatherDisplay:10.37,2013-02-24 02:40:00,
2013-02-23 21:41:00,43.1,38.6,29.81,NNE,14,0.0,0.0,84,0.00,CLR,,0.01,WeatherDisplay:10.37,2013-02-24 02:41:00,
2013-02-23 21:42:00,43.2,39.0,29.81,NNE,14,0.0,0.0,85,0.00,CLR,,0.01,WeatherDisplay:10.37,2013-02-24 02:42:00,
2013-02-23 21:44:00,43.2,39.3,29.81,NNE,14,0.0,0.0,86,0.00,CLR,,0.01,WeatherDisplay:10.37,2013-02-24 02:44:00,
2013-02-23 21:45:00,43.1,39.2,29.81,NNE,14,0.0,0.0,86,0.00,CLR,,0.01,WeatherDisplay:10.37,2013-02-24 02:45:00,
2013-02-23 21:46:00,43.4,39.5,29.81,NNE,14,0.0,0.0,86,0.00,CLR,,0.01,WeatherDisplay:10.37,2013-02-24 02:46:00,
2013-02-23 21:48:00,43.4,39.5,29.81,NNE,14,0.0,0.0,86,0.00,CLR,,0.01,WeatherDisplay:10.37,2013-02-24 02:48:00,
2013-02-23 21:49:00,43.5,39.6,29.81,NNE,14,0.0,0.0,86,0.00,CLR,,0.01,WeatherDisplay:10.37,2013-02-24 02:49:00,
2013-02-23 21:50:00,43.3,39.4,29.81,NNE,14,0.0,0.0,86,0.00,CLR,,0.01,WeatherDisplay:10.37,2013-02-24 02:50:00,
2013-02-23 21:51:00,43.0,39.1,29.82,NNE,14,0.0,0.0,86,0.00,CLR,,0.01,WeatherDisplay:10.37,2013-02-24 02:51:00,
2013-02-23 21:53:00,43.2,39.3,29.82,NNE,14,0.0,0.0,86,0.00,CLR,,0.01,WeatherDisplay:10.37,2013-02-24 02:53:00,
2013-02-23 21:55:00,43.2,39.6,29.82,NNE,14,0.0,0.0,87,0.00,CLR,,0.01,WeatherDisplay:10.37,2013-02-24 02:55:00,
2013-02-23 21:56:00,43.1,39.5,29.82,NNE,14,0.0,0.0,87,0.00,CLR,,0.01,WeatherDisplay:10.37,2013-02-24 02:56:00,
2013-02-23 21:59:00,43.3,39.7,29.82,NNE,14,0.0,0.0,87,0.00,CLR,,0.01,WeatherDisplay:10.37,2013-02-24 02:59:00,
2013-02-23 22:00:00,43.1,39.2,29.82,NNE,14,0.0,0.0,86,0.00,CLR,,0.01,WeatherDisplay:10.37,2013-02-24 03:00:00,
2013-02-23 22:01:00,43.1,39.2,29.82,NNE,14,0.0,0.0,86,0.00,CLR,,0.01,WeatherDisplay:10.37,2013-02-24 03:01:00,
2013-02-23 22:04:00,43.1,39.8,29.82,NNE,14,0.0,0.0,88,0.00,CLR,,0.01,WeatherDisplay:10.37,2013-02-24 03:04:00,
2013-02-23 22:06:00,43.0,40.0,29.82,NNE,14,0.0,0.0,89,0.00,CLR,,0.01,WeatherDisplay:10.37,2013-02-24 03:06:00,
2013-02-23 22:10:00,42.6,39.9,29.82,NNE,14,0.0,0.0,90,0.00,CLR,,0.01,WeatherDisplay:10.37,2013-02-24 03:10:00,
2013-02-23 22:11:00,42.6,39.9,29.82,NNE,14,0.0,0.0,90,0.00,CLR,,0.01,WeatherDisplay:10.37,2013-02-24 03:11:00,
2013-02-23 22:12:00,42.3,39.9,29.82,NNE,14,0.0,0.0,91,0.00,CLR,,0.01,WeatherDisplay:10.37,2013-02-24 03:12:00,
2013-02-23 22:15:00,42.4,40.2,29.82,NNE,14,0.0,0.0,92,0.00,CLR,,0.01,WeatherDisplay:10.37,2013-02-24 03:15:00,
2013-02-23 22:16:00,42.3,40.1,29.82,NNE,14,0.0,0.0,92,0.00,CLR,,0.01,WeatherDisplay:10.37,2013-02-24 03:16:00,
2013-02-23 22:17:00,42.0,39.8,29.82,NNE,14,0.0,0.0,92,0.00,CLR,,0.01,WeatherDisplay:10.37,2013-02-24 03:17:00,
2013-02-23 22:20:00,41.9,39.7,29.83,NNE,14,0.0,0.0,92,0.00,CLR,,0.01,WeatherDisplay:10.37,2013-02-24 03:20:00,
2013-02-23 22:21:00,41.6,39.4,29.82,NNE,14,0.0,0.0,92,0.00,CLR,,0.01,WeatherDisplay:10.37,2013-02-24 03:21:00,
2013-02-23 22:22:00,41.7,39.5,29.82,NNE,14,0.0,0.0,92,0.00,CLR,,0.01,WeatherDisplay:10.37,2013-02-24 03:22:00,
2013-02-23 22:25:00,41.7,40.1,29.82,NNE,14,0.0,0.0,94,0.00,CLR,,0.01,WeatherDisplay:10.37,2013-02-24 03:25:00,
2013-02-23 22:26:00,41.9,40.3,29.82,NNE,14,0.0,0.0,94,0.00,CLR,,0.01,WeatherDisplay:10.37,2013-02-24 03:26:00,
2013-02-23 22:27:00,41.6,40.3,29.82,NNE,14,0.0,0.0,95,0.00,CLR,,0.01,WeatherDisplay:10.37,2013-02-24 03:27:00,
2013-02-23 22:30:00,41.9,40.8,29.82,NNE,14,0.0,0.0,96,0.00,CLR,,0.01,WeatherDisplay:10.37,2013-02-24 03:30:00,
2013-02-23 22:31:00,42.0,41.2,29.82,NNE,14,0.0,0.0,97,0.00,CLR,,0.01,WeatherDisplay:10.37,2013-02-24 03:31:00,
2013-02-23 22:32:00,42.0,41.2,29.82,NNE,14,0.0,0.0,97,0.00,CLR,,0.01,WeatherDisplay:10.37,2013-02-24 03:32:00,
2013-02-23 22:35:00,42.3,41.5,29.82,NNE,14,0.0,0.0,97,0.00,CLR,,0.01,WeatherDisplay:10.37,2013-02-24 03:35:00,
2013-02-23 22:36:00,42.1,41.3,29.82,NNE,14,0.0,0.0,97,0.00,CLR,,0.01,WeatherDisplay:10.37,2013-02-24 03:36:00,
2013-02-23 22:37:00,41.9,41.1,29.82,NNE,14,0.0,0.0,97,0.00,CLR,,0.01,WeatherDisplay:10.37,2013-02-24 03:37:00,
2013-02-23 22:40:00,42.4,41.6,29.82,NNE,14,0.0,0.0,97,0.00,CLR,,0.01,WeatherDisplay:10.37,2013-02-24 03:40:00,
2013-02-23 22:42:00,42.2,41.4,29.82,NNE,14,0.0,0.0,97,0.00,CLR,,0.01,WeatherDisplay:10.37,2013-02-24 03:42:00,
2013-02-23 22:45:00,42.7,42.2,29.82,NNE,14,0.0,0.0,98,0.00,CLR,,0.01,WeatherDisplay:10.37,2013-02-24 03:45:00,
2013-02-23 22:47:00,42.8,42.0,29.82,NNE,14,0.0,0.0,97,0.00,CLR,,0.01,WeatherDisplay:10.37,2013-02-24 03:47:00,
2013-02-23 22:50:00,43.0,42.2,29.82,NNE,14,0.0,0.0,97,0.00,CLR,,0.01,WeatherDisplay:10.37,2013-02-24 03:50:00,
2013-02-23 22:52:00,43.2,42.4,29.82,NNE,14,0.0,0.0,97,0.00,CLR,,0.01,WeatherDisplay:10.37,2013-02-24 03:52:00,
2013-02-23 22:55:00,43.8,42.7,29.82,NNE,14,0.0,0.0,96,0.00,CLR,,0.01,WeatherDisplay:10.37,2013-02-24 03:55:00,
2013-02-23 22:57:00,43.9,42.8,29.82,NNE,14,0.0,0.0,96,0.00,CLR,,0.01,WeatherDisplay:10.37,2013-02-24 03:57:00,
2013-02-23 23:00:00,44.1,42.5,29.82,NNE,14,0.0,0.0,94,0.00,CLR,,0.01,WeatherDisplay:10.37,2013-02-24 04:00:00,
2013-02-23 23:02:00,43.8,42.2,29.82,NNE,14,0.0,0.0,94,0.00,CLR,,0.01,WeatherDisplay:10.37,2013-02-24 04:02:00,
2013-02-23 23:03:00,44.0,42.1,29.82,NNE,14,0.0,0.0,93,0.00,CLR,,0.01,WeatherDisplay:10.37,2013-02-24 04:03:00,
2013-02-23 23:05:00,44.0,41.8,29.82,NNE,14,0.0,0.0,92,0.00,CLR,,0.01,WeatherDisplay:10.37,2013-02-24 04:05:00,
2013-02-23 23:07:00,44.2,42.0,29.82,NNE,14,0.0,0.0,92,0.00,CLR,,0.01,WeatherDisplay:10.37,2013-02-24 04:07:00,
2013-02-23 23:08:00,44.2,42.0,29.82,NNE,14,0.0,0.0,92,0.00,CLR,,0.01,WeatherDisplay:10.37,2013-02-24 04:08:00,
2013-02-23 23:10:00,43.9,41.7,29.81,NNE,14,0.0,0.0,92,0.00,CLR,,0.01,WeatherDisplay:10.37,2013-02-24 04:10:00,
2013-02-23 23:12:00,43.7,41.5,29.81,NNE,14,0.0,0.0,92,0.00,CLR,,0.01,WeatherDisplay:10.37,2013-02-24 04:12:00,
2013-02-23 23:13:00,44.0,41.8,29.82,NNE,14,0.0,0.0,92,0.00,CLR,,0.01,WeatherDisplay:10.37,2013-02-24 04:13:00,
2013-02-23 23:15:00,43.6,41.1,29.81,NNE,14,0.0,0.0,91,0.00,CLR,,0.01,WeatherDisplay:10.37,2013-02-24 04:15:00,
2013-02-23 23:17:00,43.9,41.4,29.81,NNE,14,0.0,0.0,91,0.00,CLR,,0.01,WeatherDisplay:10.37,2013-02-24 04:17:00,
2013-02-23 23:19:00,43.4,40.9,29.81,NNE,14,0.0,0.0,91,0.00,CLR,,0.01,WeatherDisplay:10.37,2013-02-24 04:19:00,
2013-02-23 23:20:00,43.4,40.9,29.81,NNE,14,0.0,0.0,91,0.00,CLR,,0.01,WeatherDisplay:10.37,2013-02-24 04:20:00,
2013-02-23 23:22:00,43.3,41.4,29.81,NNE,14,0.0,0.0,93,0.00,CLR,,0.01,WeatherDisplay:10.37,2013-02-24 04:22:00,
2013-02-23 23:23:00,43.0,41.1,29.81,NNE,14,0.0,0.0,93,0.00,CLR,,0.01,WeatherDisplay:10.37,2013-02-24 04:23:00,
2013-02-23 23:24:00,43.0,41.1,29.82,NNE,14,0.0,0.0,93,0.00,CLR,,0.01,WeatherDisplay:10.37,2013-02-24 04:24:00,
2013-02-23 23:25:00,43.1,40.9,29.82,NNE,14,0.0,0.0,92,0.00,CLR,,0.01,WeatherDisplay:10.37,2013-02-24 04:25:00,
2013-02-23 23:27:00,43.0,41.1,29.82,NNE,14,0.0,0.0,93,0.00,CLR,,0.01,WeatherDisplay:10.37,2013-02-24 04:27:00,
2013-02-23 23:28:00,42.9,41.0,29.82,NNE,14,0.0,0.0,93,0.00,CLR,,0.01,WeatherDisplay:10.37,2013-02-24 04:28:00,
2013-02-23 23:29:00,42.9,41.0,29.82,NNE,14,0.0,0.0,93,0.00,CLR,,0.01,WeatherDisplay:10.37,2013-02-24 04:29:00,
2013-02-23 23:30:00,42.9,41.0,29.82,NNE,14,0.0,0.0,93,0.00,CLR,,0.01,WeatherDisplay:10.37,2013-02-24 04:30:00,
2013-02-23 23:33:00,42.5,40.6,29.82,NNE,14,0.0,0.0,93,0.00,CLR,,0.01,WeatherDisplay:10.37,2013-02-24 04:33:00,
2013-02-23 23:34:00,42.2,40.3,29.82,NNE,14,0.0,0.0,93,0.00,CLR,,0.01,WeatherDisplay:10.37,2013-02-24 04:34:00,
2013-02-23 23:36:00,42.2,40.6,29.81,NNE,14,0.0,0.0,94,0.00,CLR,,0.01,WeatherDisplay:10.37,2013-02-24 04:36:00,
2013-02-23 23:38:00,42.2,40.6,29.81,NNE,14,0.0,0.0,94,0.00,CLR,,0.01,WeatherDisplay:10.37,2013-02-24 04:38:00,
2013-02-23 23:39:00,42.2,40.3,29.81,NNE,14,0.0,0.0,93,0.00,CLR,,0.01,WeatherDisplay:10.37,2013-02-24 04:39:00,
2013-02-23 23:41:00,42.2,40.6,29.81,NNE,14,0.0,0.0,94,0.00,CLR,,0.01,WeatherDisplay:10.37,2013-02-24 04:41:00,
2013-02-23 23:43:00,42.4,40.8,29.81,NNE,14,0.0,0.0,94,0.00,CLR,,0.01,WeatherDisplay:10.37,2013-02-24 04:43:00,
2013-02-23 23:44:00,42.5,40.9,29.81,NNE,14,0.0,0.0,94,0.00,CLR,,0.01,WeatherDisplay:10.37,2013-02-24 04:44:00,
2013-02-23 23:47:00,42.3,41.2,29.81,NNE,14,0.0,0.0,96,0.00,CLR,,0.01,WeatherDisplay:10.37,2013-02-24 04:47:00,
2013-02-23 23:48:00,42.5,41.7,29.81,NNE,14,0.0,0.0,97,0.00,CLR,,0.01,WeatherDisplay:10.37,2013-02-24 04:48:00,
2013-02-23 23:50:00,42.3,41.5,29.81,NNE,14,0.0,0.0,97,0.00,CLR,,0.01,WeatherDisplay:10.37,2013-02-24 04:50:00,
2013-02-23 23:52:00,42.2,40.9,29.81,NNE,14,0.0,0.0,95,0.00,CLR,,0.01,WeatherDisplay:10.37,2013-02-24 04:52:00,
2013-02-23 23:53:00,42.0,40.7,29.81,NNE,14,0.0,0.0,95,0.00,CLR,,0.01,WeatherDisplay:10.37,2013-02-24 04:53:00,
2013-02-23 23:55:00,41.7,40.4,29.82,NNE,14,0.0,0.0,95,0.00,CLR,,0.01,WeatherDisplay:10.37,2013-02-24 04:55:00,
2013-02-23 23:57:00,41.4,40.3,29.82,NNE,14,0.0,0.0,96,0.00,CLR,,0.01,WeatherDisplay:10.37,2013-02-24 04:57:00,
2013-02-23 23:58:00,41.1,40.3,29.82,NNE,14,0.0,0.0,97,0.00,CLR,,0.01,WeatherDisplay:10.37,2013-02-24 04:58:00,
2013-02-23 23:59:00,41.3,40.5,29.81,NNE,14,0.0,0.0,97,0.00,CLR,,0.01,WeatherDisplay:10.37,2013-02-24 04:59:00,